PWSweather.com
Personal Weather Stations
Station Observations
EI4HQ
Cork Harbour, CobhIE

Cork HarbourCobhIE

Lat: 51.85, Lon: -8.29

Elevation: 252

Station Type: Davis Vantage Pro2

http://www.corkharbourweather.ie

High Low Average
Temperature 56.1°F13.4°C 37.0°F2.8°C 45.5°F7.5°C
Dew Point 47.7°F8.7°C 35.2°F1.8°C 41.2°F5.1°C
Winds 12.0 mph 19.3 kmh Calm Calm 5.0 mph SW8.0 kmh SW
Wind Gusts 18.0 mph29.0 kmh -- 8.0 mph12.9 kmh
Humidity 95% 58% 85%
Pressure 30.01 in1016.3 mb 29.91 in1012.9 mb -
Precipitation 0.06 in1.5 mm - -
Hour Temp Dew Point Humidity Winds Wind Gusts Pressure Precip Precip Rate Daily Precip Total
12:00 AM 41.0°F5.0°C 38.7°F3.7°C 91% 9.0 mph NNW14.5 kmh NNW 11.0 mph17.7 kmh 29.93 in1013.5 mb 0.00 in0.0 mm 0.00 in0.0 mm 0.00 in0.0 mm
12:03 AM 40.8°F4.9°C 38.5°F3.6°C 91% 8.0 mph NNW12.9 kmh NNW 11.0 mph17.7 kmh 29.93 in1013.5 mb 0.00 in0.0 mm 0.00 in0.0 mm 0.00 in0.0 mm
12:06 AM 40.8°F4.9°C 38.3°F3.5°C 91% 8.0 mph NNW12.9 kmh NNW 10.0 mph16.1 kmh 29.93 in1013.5 mb 0.00 in0.0 mm 0.00 in0.0 mm 0.00 in0.0 mm
12:09 AM 40.6°F4.8°C 38.3°F3.5°C 91% 8.0 mph NNW12.9 kmh NNW 10.0 mph16.1 kmh 29.93 in1013.5 mb 0.00 in0.0 mm 0.00 in0.0 mm 0.00 in0.0 mm
12:12 AM 40.6°F4.8°C 38.3°F3.5°C 91% 8.0 mph NNW12.9 kmh NNW 11.0 mph17.7 kmh 29.93 in1013.5 mb 0.00 in0.0 mm 0.00 in0.0 mm 0.00 in0.0 mm
12:15 AM 40.6°F4.8°C 38.1°F3.4°C 91% 9.0 mph NNW14.5 kmh NNW 11.0 mph17.7 kmh 29.93 in1013.5 mb 0.00 in0.0 mm 0.00 in0.0 mm 0.00 in0.0 mm
12:18 AM 40.5°F4.7°C 38.1°F3.4°C 91% 9.0 mph NNW14.5 kmh NNW 11.0 mph17.7 kmh 29.93 in1013.5 mb 0.00 in0.0 mm 0.00 in0.0 mm 0.00 in0.0 mm
12:21 AM 40.3°F4.6°C 37.9°F3.3°C 91% 9.0 mph NNW14.5 kmh NNW 11.0 mph17.7 kmh 29.93 in1013.5 mb 0.00 in0.0 mm 0.00 in0.0 mm 0.00 in0.0 mm
12:24 AM 40.3°F4.6°C 37.8°F3.2°C 91% 9.0 mph NNW14.5 kmh NNW 11.0 mph17.7 kmh 29.93 in1013.5 mb 0.00 in0.0 mm 0.00 in0.0 mm 0.00 in0.0 mm
12:27 AM 40.1°F4.5°C 37.9°F3.3°C 92% 9.0 mph NNW14.5 kmh NNW 11.0 mph17.7 kmh 29.93 in1013.5 mb 0.00 in0.0 mm 0.00 in0.0 mm 0.00 in0.0 mm
12:30 AM 40.1°F4.5°C 37.9°F3.3°C 92% 9.0 mph NNW14.5 kmh NNW 11.0 mph17.7 kmh 29.93 in1013.5 mb 0.00 in0.0 mm 0.00 in0.0 mm 0.00 in0.0 mm
12:33 AM 39.9°F4.4°C 37.9°F3.3°C 92% 9.0 mph NNW14.5 kmh NNW 11.0 mph17.7 kmh 29.93 in1013.5 mb 0.00 in0.0 mm 0.00 in0.0 mm 0.00 in0.0 mm
12:36 AM 39.9°F4.4°C 37.9°F3.3°C 92% 9.0 mph NNW14.5 kmh NNW 11.0 mph17.7 kmh 29.93 in1013.5 mb 0.00 in0.0 mm 0.00 in0.0 mm 0.00 in0.0 mm
12:39 AM 40.1°F4.5°C 37.9°F3.3°C 92% 9.0 mph NNW14.5 kmh NNW 11.0 mph17.7 kmh 29.93 in1013.5 mb 0.00 in0.0 mm 0.00 in0.0 mm 0.00 in0.0 mm
12:42 AM 39.9°F4.4°C 37.9°F3.3°C 92% 9.0 mph NNW14.5 kmh NNW 11.0 mph17.7 kmh 29.92 in1013.2 mb 0.00 in0.0 mm 0.00 in0.0 mm 0.00 in0.0 mm
12:45 AM 39.9°F4.4°C 37.8°F3.2°C 92% 9.0 mph NNW14.5 kmh NNW 11.0 mph17.7 kmh 29.93 in1013.5 mb 0.00 in0.0 mm 0.00 in0.0 mm 0.00 in0.0 mm
12:48 AM 39.9°F4.4°C 37.8°F3.2°C 92% 9.0 mph NNW14.5 kmh NNW 11.0 mph17.7 kmh 29.93 in1013.5 mb 0.00 in0.0 mm 0.00 in0.0 mm 0.00 in0.0 mm
12:51 AM 39.9°F4.4°C 37.8°F3.2°C 92% 9.0 mph NNW14.5 kmh NNW 11.0 mph17.7 kmh 29.93 in1013.5 mb 0.00 in0.0 mm 0.00 in0.0 mm 0.00 in0.0 mm
12:54 AM 39.9°F4.4°C 38.1°F3.4°C 93% 9.0 mph NNW14.5 kmh NNW 11.0 mph17.7 kmh 29.93 in1013.5 mb 0.00 in0.0 mm 0.00 in0.0 mm 0.00 in0.0 mm
12:57 AM 39.9°F4.4°C 37.8°F3.2°C 92% 9.0 mph NNW14.5 kmh NNW 11.0 mph17.7 kmh 29.93 in1013.5 mb 0.00 in0.0 mm 0.00 in0.0 mm 0.00 in0.0 mm
01:00 AM 39.9°F4.4°C 38.1°F3.4°C 93% 9.0 mph NNW14.5 kmh NNW 11.0 mph17.7 kmh 29.93 in1013.5 mb 0.00 in0.0 mm 0.00 in0.0 mm 0.00 in0.0 mm
01:03 AM 39.9°F4.4°C 38.1°F3.4°C 93% 9.0 mph NNW14.5 kmh NNW 11.0 mph17.7 kmh 29.93 in1013.5 mb 0.00 in0.0 mm 0.00 in0.0 mm 0.00 in0.0 mm
01:06 AM 39.9°F4.4°C 38.1°F3.4°C 93% 9.0 mph NNW14.5 kmh NNW 11.0 mph17.7 kmh 29.93 in1013.5 mb 0.00 in0.0 mm 0.00 in0.0 mm 0.00 in0.0 mm
01:09 AM 39.9°F4.4°C 38.1°F3.4°C 93% 9.0 mph NNW14.5 kmh NNW 11.0 mph17.7 kmh 29.93 in1013.5 mb 0.00 in0.0 mm 0.00 in0.0 mm 0.00 in0.0 mm
01:12 AM 39.9°F4.4°C 38.1°F3.4°C 93% 9.0 mph NNW14.5 kmh NNW 11.0 mph17.7 kmh 29.92 in1013.2 mb 0.00 in0.0 mm 0.00 in0.0 mm 0.00 in0.0 mm
01:15 AM 39.9°F4.4°C 38.1°F3.4°C 93% 9.0 mph NNW14.5 kmh NNW 11.0 mph17.7 kmh 29.92 in1013.2 mb 0.00 in0.0 mm 0.00 in0.0 mm 0.00 in0.0 mm
01:18 AM 39.9°F4.4°C 38.1°F3.4°C 93% 10.0 mph NNW16.1 kmh NNW 11.0 mph17.7 kmh 29.92 in1013.2 mb 0.00 in0.0 mm 0.00 in0.0 mm 0.00 in0.0 mm
01:21 AM 39.9°F4.4°C 38.1°F3.4°C 93% 10.0 mph NNW16.1 kmh NNW 11.0 mph17.7 kmh 29.92 in1013.2 mb 0.00 in0.0 mm 0.00 in0.0 mm 0.00 in0.0 mm
01:24 AM 39.9°F4.4°C 37.9°F3.3°C 92% 10.0 mph NNW16.1 kmh NNW 11.0 mph17.7 kmh 29.92 in1013.2 mb 0.00 in0.0 mm 0.00 in0.0 mm 0.00 in0.0 mm
01:27 AM 39.9°F4.4°C 37.9°F3.3°C 92% 9.0 mph NNW14.5 kmh NNW 11.0 mph17.7 kmh 29.92 in1013.2 mb 0.00 in0.0 mm 0.00 in0.0 mm 0.00 in0.0 mm
01:30 AM 39.9°F4.4°C 37.9°F3.3°C 92% 9.0 mph NNW14.5 kmh NNW 12.0 mph19.3 kmh 29.92 in1013.2 mb 0.00 in0.0 mm 0.00 in0.0 mm 0.00 in0.0 mm
01:33 AM 40.1°F4.5°C 37.9°F3.3°C 92% 9.0 mph NNW14.5 kmh NNW 12.0 mph19.3 kmh 29.92 in1013.2 mb 0.00 in0.0 mm 0.00 in0.0 mm 0.00 in0.0 mm
01:36 AM 39.9°F4.4°C 37.9°F3.3°C 92% 9.0 mph NNW14.5 kmh NNW 12.0 mph19.3 kmh 29.92 in1013.2 mb 0.00 in0.0 mm 0.00 in0.0 mm 0.00 in0.0 mm
01:39 AM 39.9°F4.4°C 37.9°F3.3°C 92% 9.0 mph NNW14.5 kmh NNW 11.0 mph17.7 kmh 29.92 in1013.2 mb 0.00 in0.0 mm 0.00 in0.0 mm 0.00 in0.0 mm
01:42 AM 39.9°F4.4°C 37.8°F3.2°C 92% 8.0 mph NNW12.9 kmh NNW 10.0 mph16.1 kmh 29.92 in1013.2 mb 0.00 in0.0 mm 0.00 in0.0 mm 0.00 in0.0 mm
01:45 AM 39.7°F4.3°C 37.6°F3.1°C 92% 8.0 mph NNW12.9 kmh NNW 10.0 mph16.1 kmh 29.92 in1013.2 mb 0.00 in0.0 mm 0.00 in0.0 mm 0.00 in0.0 mm
01:48 AM 39.6°F4.2°C 37.4°F3.0°C 92% 8.0 mph NNW12.9 kmh NNW 10.0 mph16.1 kmh 29.92 in1013.2 mb 0.00 in0.0 mm 0.00 in0.0 mm 0.00 in0.0 mm
01:51 AM 39.4°F4.1°C 37.2°F2.9°C 92% 8.0 mph NNW12.9 kmh NNW 10.0 mph16.1 kmh 29.92 in1013.2 mb 0.00 in0.0 mm 0.00 in0.0 mm 0.00 in0.0 mm
01:54 AM 39.4°F4.1°C 37.2°F2.9°C 92% 8.0 mph NNW12.9 kmh NNW 10.0 mph16.1 kmh 29.92 in1013.2 mb 0.00 in0.0 mm 0.00 in0.0 mm 0.00 in0.0 mm
01:57 AM 39.2°F4.0°C 37.0°F2.8°C 92% 7.0 mph NNW11.3 kmh NNW 10.0 mph16.1 kmh 29.92 in1013.2 mb 0.00 in0.0 mm 0.00 in0.0 mm 0.00 in0.0 mm
02:00 AM 39.0°F3.9°C 36.9°F2.7°C 92% 7.0 mph NNW11.3 kmh NNW 10.0 mph16.1 kmh 29.92 in1013.2 mb 0.00 in0.0 mm 0.00 in0.0 mm 0.00 in0.0 mm
02:03 AM 38.8°F3.8°C 36.9°F2.7°C 92% 6.0 mph NNW9.7 kmh NNW 8.0 mph12.9 kmh 29.92 in1013.2 mb 0.00 in0.0 mm 0.00 in0.0 mm 0.00 in0.0 mm
02:06 AM 38.8°F3.8°C 36.9°F2.7°C 92% 6.0 mph NNW9.7 kmh NNW 8.0 mph12.9 kmh 29.92 in1013.2 mb 0.00 in0.0 mm 0.00 in0.0 mm 0.00 in0.0 mm
02:09 AM 39.0°F3.9°C 37.2°F2.9°C 93% 5.0 mph N8.0 kmh N 8.0 mph12.9 kmh 29.92 in1013.2 mb 0.00 in0.0 mm 0.00 in0.0 mm 0.00 in0.0 mm
02:12 AM 39.2°F4.0°C 37.4°F3.0°C 93% 6.0 mph N9.7 kmh N 9.0 mph14.5 kmh 29.92 in1013.2 mb 0.00 in0.0 mm 0.00 in0.0 mm 0.00 in0.0 mm
02:15 AM 39.4°F4.1°C 37.6°F3.1°C 93% 6.0 mph N9.7 kmh N 9.0 mph14.5 kmh 29.92 in1013.2 mb 0.00 in0.0 mm 0.00 in0.0 mm 0.00 in0.0 mm
02:18 AM 39.6°F4.2°C 37.6°F3.1°C 93% 6.0 mph N9.7 kmh N 9.0 mph14.5 kmh 29.92 in1013.2 mb 0.00 in0.0 mm 0.00 in0.0 mm 0.00 in0.0 mm
02:21 AM 39.4°F4.1°C 37.2°F2.9°C 92% 6.0 mph NNW9.7 kmh NNW 9.0 mph14.5 kmh 29.92 in1013.2 mb 0.00 in0.0 mm 0.00 in0.0 mm 0.00 in0.0 mm
02:24 AM 39.2°F4.0°C 37.0°F2.8°C 92% 6.0 mph NNW9.7 kmh NNW 9.0 mph14.5 kmh 29.92 in1013.2 mb 0.00 in0.0 mm 0.00 in0.0 mm 0.00 in0.0 mm
02:27 AM 39.0°F3.9°C 37.0°F2.8°C 92% 6.0 mph NNW9.7 kmh NNW 9.0 mph14.5 kmh 29.92 in1013.2 mb 0.00 in0.0 mm 0.00 in0.0 mm 0.00 in0.0 mm
02:30 AM 39.0°F3.9°C 37.0°F2.8°C 92% 6.0 mph NNW9.7 kmh NNW 9.0 mph14.5 kmh 29.92 in1013.2 mb 0.00 in0.0 mm 0.00 in0.0 mm 0.00 in0.0 mm
02:33 AM 39.0°F3.9°C 36.9°F2.7°C 92% 6.0 mph NNW9.7 kmh NNW 9.0 mph14.5 kmh 29.92 in1013.2 mb 0.00 in0.0 mm 0.00 in0.0 mm 0.00 in0.0 mm
02:36 AM 39.0°F3.9°C 37.0°F2.8°C 92% 5.0 mph N8.0 kmh N 8.0 mph12.9 kmh 29.92 in1013.2 mb 0.00 in0.0 mm 0.00 in0.0 mm 0.00 in0.0 mm
02:39 AM 39.2°F4.0°C 37.4°F3.0°C 93% 5.0 mph N8.0 kmh N 8.0 mph12.9 kmh 29.91 in1012.9 mb 0.00 in0.0 mm 0.00 in0.0 mm 0.00 in0.0 mm
02:42 AM 39.2°F4.0°C 37.4°F3.0°C 93% 6.0 mph NNW9.7 kmh NNW 9.0 mph14.5 kmh 29.92 in1013.2 mb 0.00 in0.0 mm 0.00 in0.0 mm 0.00 in0.0 mm
02:45 AM 39.4°F4.1°C 37.6°F3.1°C 93% 7.0 mph NNW11.3 kmh NNW 10.0 mph16.1 kmh 29.92 in1013.2 mb 0.00 in0.0 mm 0.00 in0.0 mm 0.00 in0.0 mm
02:48 AM 39.4°F4.1°C 37.6°F3.1°C 93% 7.0 mph NNW11.3 kmh NNW 10.0 mph16.1 kmh 29.92 in1013.2 mb 0.00 in0.0 mm 0.00 in0.0 mm 0.00 in0.0 mm
02:51 AM 39.4°F4.1°C 37.6°F3.1°C 93% 8.0 mph NNW12.9 kmh NNW 10.0 mph16.1 kmh 29.92 in1013.2 mb 0.00 in0.0 mm 0.00 in0.0 mm 0.00 in0.0 mm
02:54 AM 39.2°F4.0°C 37.0°F2.8°C 92% 7.0 mph NNW11.3 kmh NNW 10.0 mph16.1 kmh 29.92 in1013.2 mb 0.00 in0.0 mm 0.00 in0.0 mm 0.00 in0.0 mm
02:57 AM 39.2°F4.0°C 37.4°F3.0°C 93% 7.0 mph NNW11.3 kmh NNW 9.0 mph14.5 kmh 29.92 in1013.2 mb 0.00 in0.0 mm 0.00 in0.0 mm 0.00 in0.0 mm
03:00 AM 39.2°F4.0°C 37.4°F3.0°C 93% 7.0 mph NNW11.3 kmh NNW 9.0 mph14.5 kmh 29.92 in1013.2 mb 0.00 in0.0 mm 0.00 in0.0 mm 0.00 in0.0 mm
03:03 AM 39.0°F3.9°C 37.2°F2.9°C 93% 7.0 mph NNW11.3 kmh NNW 9.0 mph14.5 kmh 29.92 in1013.2 mb 0.00 in0.0 mm 0.00 in0.0 mm 0.00 in0.0 mm
03:06 AM 39.0°F3.9°C 37.2°F2.9°C 93% 7.0 mph NNW11.3 kmh NNW 9.0 mph14.5 kmh 29.92 in1013.2 mb 0.00 in0.0 mm 0.00 in0.0 mm 0.00 in0.0 mm
03:09 AM 39.0°F3.9°C 37.2°F2.9°C 93% 8.0 mph NNW12.9 kmh NNW 10.0 mph16.1 kmh 29.92 in1013.2 mb 0.00 in0.0 mm 0.00 in0.0 mm 0.00 in0.0 mm
03:12 AM 39.0°F3.9°C 37.2°F2.9°C 93% 8.0 mph NNW12.9 kmh NNW 11.0 mph17.7 kmh 29.92 in1013.2 mb 0.00 in0.0 mm 0.00 in0.0 mm 0.00 in0.0 mm
03:15 AM 38.8°F3.8°C 37.0°F2.8°C 93% 8.0 mph NNW12.9 kmh NNW 11.0 mph17.7 kmh 29.92 in1013.2 mb 0.00 in0.0 mm 0.00 in0.0 mm 0.00 in0.0 mm
03:18 AM 38.8°F3.8°C 36.9°F2.7°C 93% 8.0 mph NNW12.9 kmh NNW 11.0 mph17.7 kmh 29.92 in1013.2 mb 0.00 in0.0 mm 0.00 in0.0 mm 0.00 in0.0 mm
03:21 AM 38.8°F3.8°C 36.9°F2.7°C 93% 7.0 mph NNW11.3 kmh NNW 10.0 mph16.1 kmh 29.92 in1013.2 mb 0.00 in0.0 mm 0.00 in0.0 mm 0.00 in0.0 mm
03:24 AM 38.7°F3.7°C 36.7°F2.6°C 93% 7.0 mph NNW11.3 kmh NNW 9.0 mph14.5 kmh 29.92 in1013.2 mb 0.00 in0.0 mm 0.00 in0.0 mm 0.00 in0.0 mm
03:27 AM 38.5°F3.6°C 36.5°F2.5°C 93% 6.0 mph NNW9.7 kmh NNW 9.0 mph14.5 kmh 29.92 in1013.2 mb 0.00 in0.0 mm 0.00 in0.0 mm 0.00 in0.0 mm
03:30 AM 38.3°F3.5°C 36.5°F2.5°C 93% 7.0 mph NNW11.3 kmh NNW 11.0 mph17.7 kmh 29.92 in1013.2 mb 0.00 in0.0 mm 0.00 in0.0 mm 0.00 in0.0 mm
03:33 AM 38.1°F3.4°C 36.3°F2.4°C 93% 8.0 mph NNW12.9 kmh NNW 11.0 mph17.7 kmh 29.92 in1013.2 mb 0.00 in0.0 mm 0.00 in0.0 mm 0.00 in0.0 mm
03:36 AM 38.1°F3.4°C 36.3°F2.4°C 93% 8.0 mph NNW12.9 kmh NNW 11.0 mph17.7 kmh 29.92 in1013.2 mb 0.00 in0.0 mm 0.00 in0.0 mm 0.00 in0.0 mm
03:39 AM 38.1°F3.4°C 36.3°F2.4°C 93% 8.0 mph NNW12.9 kmh NNW 11.0 mph17.7 kmh 29.92 in1013.2 mb 0.00 in0.0 mm 0.00 in0.0 mm 0.00 in0.0 mm
03:42 AM 38.1°F3.4°C 36.3°F2.4°C 93% 7.0 mph NNW11.3 kmh NNW 11.0 mph17.7 kmh 29.92 in1013.2 mb 0.00 in0.0 mm 0.00 in0.0 mm 0.00 in0.0 mm
03:45 AM 38.1°F3.4°C 36.3°F2.4°C 93% 6.0 mph NNW9.7 kmh NNW 11.0 mph17.7 kmh 29.92 in1013.2 mb 0.00 in0.0 mm 0.00 in0.0 mm 0.00 in0.0 mm
03:48 AM 37.9°F3.3°C 36.1°F2.3°C 93% 6.0 mph NNW9.7 kmh NNW 9.0 mph14.5 kmh 29.92 in1013.2 mb 0.00 in0.0 mm 0.00 in0.0 mm 0.00 in0.0 mm
03:51 AM 37.9°F3.3°C 36.1°F2.3°C 93% 6.0 mph NNW9.7 kmh NNW 10.0 mph16.1 kmh 29.92 in1013.2 mb 0.00 in0.0 mm 0.00 in0.0 mm 0.00 in0.0 mm
03:54 AM 37.8°F3.2°C 35.8°F2.1°C 93% 6.0 mph NNW9.7 kmh NNW 10.0 mph16.1 kmh 29.92 in1013.2 mb 0.00 in0.0 mm 0.00 in0.0 mm 0.00 in0.0 mm
03:57 AM 37.6°F3.1°C 35.8°F2.1°C 93% 6.0 mph NNW9.7 kmh NNW 10.0 mph16.1 kmh 29.92 in1013.2 mb 0.00 in0.0 mm 0.00 in0.0 mm 0.00 in0.0 mm
04:00 AM 37.4°F3.0°C 35.6°F2.0°C 93% 6.0 mph NNW9.7 kmh NNW 9.0 mph14.5 kmh 29.92 in1013.2 mb 0.00 in0.0 mm 0.00 in0.0 mm 0.00 in0.0 mm
04:03 AM 37.2°F2.9°C 35.4°F1.9°C 93% 5.0 mph NNW8.0 kmh NNW 8.0 mph12.9 kmh 29.92 in1013.2 mb 0.00 in0.0 mm 0.00 in0.0 mm 0.00 in0.0 mm
04:06 AM 37.0°F2.8°C 35.2°F1.8°C 93% 4.0 mph NNW6.4 kmh NNW 8.0 mph12.9 kmh 29.92 in1013.2 mb 0.00 in0.0 mm 0.00 in0.0 mm 0.00 in0.0 mm
04:09 AM 37.0°F2.8°C 35.2°F1.8°C 93% 4.0 mph NNW6.4 kmh NNW 6.0 mph9.7 kmh 29.92 in1013.2 mb 0.00 in0.0 mm 0.00 in0.0 mm 0.00 in0.0 mm
04:12 AM 37.0°F2.8°C 35.2°F1.8°C 93% 4.0 mph NNW6.4 kmh NNW 8.0 mph12.9 kmh 29.92 in1013.2 mb 0.00 in0.0 mm 0.00 in0.0 mm 0.00 in0.0 mm
04:15 AM 37.0°F2.8°C 35.6°F2.0°C 94% 4.0 mph NNW6.4 kmh NNW 8.0 mph12.9 kmh 29.92 in1013.2 mb 0.00 in0.0 mm 0.00 in0.0 mm 0.00 in0.0 mm
04:18 AM 37.0°F2.8°C 35.6°F2.0°C 94% 5.0 mph NNW8.0 kmh NNW 8.0 mph12.9 kmh 29.92 in1013.2 mb 0.00 in0.0 mm 0.00 in0.0 mm 0.00 in0.0 mm
04:21 AM 37.2°F2.9°C 35.6°F2.0°C 94% 6.0 mph NNW9.7 kmh NNW 9.0 mph14.5 kmh 29.92 in1013.2 mb 0.00 in0.0 mm 0.00 in0.0 mm 0.00 in0.0 mm
04:24 AM 37.2°F2.9°C 35.6°F2.0°C 94% 6.0 mph NNW9.7 kmh NNW 10.0 mph16.1 kmh 29.92 in1013.2 mb 0.00 in0.0 mm 0.00 in0.0 mm 0.00 in0.0 mm
04:27 AM 37.2°F2.9°C 35.8°F2.1°C 94% 6.0 mph NNW9.7 kmh NNW 10.0 mph16.1 kmh 29.93 in1013.5 mb 0.00 in0.0 mm 0.00 in0.0 mm 0.00 in0.0 mm
04:30 AM 37.6°F3.1°C 36.0°F2.2°C 94% 6.0 mph NNW9.7 kmh NNW 10.0 mph16.1 kmh 29.92 in1013.2 mb 0.00 in0.0 mm 0.00 in0.0 mm 0.00 in0.0 mm
04:33 AM 37.6°F3.1°C 36.0°F2.2°C 94% 6.0 mph NNW9.7 kmh NNW 10.0 mph16.1 kmh 29.92 in1013.2 mb 0.00 in0.0 mm 0.00 in0.0 mm 0.00 in0.0 mm
04:36 AM 37.8°F3.2°C 36.1°F2.3°C 94% 6.0 mph N9.7 kmh N 9.0 mph14.5 kmh 29.92 in1013.2 mb 0.00 in0.0 mm 0.00 in0.0 mm 0.00 in0.0 mm
04:39 AM 37.9°F3.3°C 36.3°F2.4°C 94% 6.0 mph N9.7 kmh N 9.0 mph14.5 kmh 29.93 in1013.5 mb 0.00 in0.0 mm 0.00 in0.0 mm 0.00 in0.0 mm
04:42 AM 37.9°F3.3°C 36.5°F2.5°C 94% 7.0 mph N11.3 kmh N 11.0 mph17.7 kmh 29.92 in1013.2 mb 0.00 in0.0 mm 0.00 in0.0 mm 0.00 in0.0 mm
04:45 AM 37.9°F3.3°C 36.5°F2.5°C 94% 7.0 mph NNW11.3 kmh NNW 11.0 mph17.7 kmh 29.92 in1013.2 mb 0.00 in0.0 mm 0.00 in0.0 mm 0.00 in0.0 mm
04:48 AM 37.9°F3.3°C 36.3°F2.4°C 94% 8.0 mph NNW12.9 kmh NNW 11.0 mph17.7 kmh 29.93 in1013.5 mb 0.00 in0.0 mm 0.00 in0.0 mm 0.00 in0.0 mm
04:51 AM 37.8°F3.2°C 36.1°F2.3°C 94% 8.0 mph NNW12.9 kmh NNW 10.0 mph16.1 kmh 29.93 in1013.5 mb 0.00 in0.0 mm 0.00 in0.0 mm 0.00 in0.0 mm
04:54 AM 37.8°F3.2°C 36.1°F2.3°C 94% 8.0 mph NNW12.9 kmh NNW 10.0 mph16.1 kmh 29.93 in1013.5 mb 0.00 in0.0 mm 0.00 in0.0 mm 0.00 in0.0 mm
04:57 AM 37.8°F3.2°C 36.1°F2.3°C 94% 8.0 mph NNW12.9 kmh NNW 10.0 mph16.1 kmh 29.93 in1013.5 mb 0.00 in0.0 mm 0.00 in0.0 mm 0.00 in0.0 mm
05:00 AM 37.8°F3.2°C 36.1°F2.3°C 94% 8.0 mph NNW12.9 kmh NNW 10.0 mph16.1 kmh 29.93 in1013.5 mb 0.00 in0.0 mm 0.00 in0.0 mm 0.00 in0.0 mm
05:03 AM 37.8°F3.2°C 36.1°F2.3°C 94% 8.0 mph NNW12.9 kmh NNW 10.0 mph16.1 kmh 29.93 in1013.5 mb 0.00 in0.0 mm 0.00 in0.0 mm 0.00 in0.0 mm
05:06 AM 37.9°F3.3°C 36.3°F2.4°C 94% 7.0 mph NNW11.3 kmh NNW 10.0 mph16.1 kmh 29.93 in1013.5 mb 0.00 in0.0 mm 0.00 in0.0 mm 0.00 in0.0 mm
05:09 AM 37.8°F3.2°C 36.1°F2.3°C 94% 8.0 mph NNW12.9 kmh NNW 10.0 mph16.1 kmh 29.93 in1013.5 mb 0.00 in0.0 mm 0.00 in0.0 mm 0.00 in0.0 mm
05:12 AM 37.6°F3.1°C 36.0°F2.2°C 94% 8.0 mph NNW12.9 kmh NNW 11.0 mph17.7 kmh 29.93 in1013.5 mb 0.00 in0.0 mm 0.00 in0.0 mm 0.00 in0.0 mm
05:15 AM 37.6°F3.1°C 36.0°F2.2°C 94% 8.0 mph NNW12.9 kmh NNW 11.0 mph17.7 kmh 29.93 in1013.5 mb 0.00 in0.0 mm 0.00 in0.0 mm 0.00 in0.0 mm
05:18 AM 37.6°F3.1°C 36.0°F2.2°C 94% 8.0 mph NNW12.9 kmh NNW 11.0 mph17.7 kmh 29.93 in1013.5 mb 0.00 in0.0 mm 0.00 in0.0 mm 0.00 in0.0 mm
05:21 AM 37.6°F3.1°C 36.0°F2.2°C 94% 8.0 mph NNW12.9 kmh NNW 11.0 mph17.7 kmh 29.93 in1013.5 mb 0.00 in0.0 mm 0.00 in0.0 mm 0.00 in0.0 mm
05:24 AM 37.6°F3.1°C 36.0°F2.2°C 94% 9.0 mph NNW14.5 kmh NNW 11.0 mph17.7 kmh 29.93 in1013.5 mb 0.00 in0.0 mm 0.00 in0.0 mm 0.00 in0.0 mm
05:27 AM 37.6°F3.1°C 36.3°F2.4°C 95% 9.0 mph NNW14.5 kmh NNW 11.0 mph17.7 kmh 29.93 in1013.5 mb 0.00 in0.0 mm 0.00 in0.0 mm 0.00 in0.0 mm
05:30 AM 37.8°F3.2°C 36.1°F2.3°C 94% 8.0 mph NNW12.9 kmh NNW 11.0 mph17.7 kmh 29.93 in1013.5 mb 0.00 in0.0 mm 0.00 in0.0 mm 0.00 in0.0 mm
05:33 AM 37.8°F3.2°C 36.5°F2.5°C 95% 8.0 mph NNW12.9 kmh NNW 11.0 mph17.7 kmh 29.93 in1013.5 mb 0.00 in0.0 mm 0.00 in0.0 mm 0.00 in0.0 mm
05:36 AM 37.8°F3.2°C 36.5°F2.5°C 95% 9.0 mph NNW14.5 kmh NNW 11.0 mph17.7 kmh 29.93 in1013.5 mb 0.00 in0.0 mm 0.00 in0.0 mm 0.00 in0.0 mm
05:39 AM 37.8°F3.2°C 36.5°F2.5°C 95% 9.0 mph NNW14.5 kmh NNW 11.0 mph17.7 kmh 29.93 in1013.5 mb 0.00 in0.0 mm 0.00 in0.0 mm 0.00 in0.0 mm
05:42 AM 37.8°F3.2°C 36.1°F2.3°C 94% 8.0 mph NNW12.9 kmh NNW 11.0 mph17.7 kmh 29.93 in1013.5 mb 0.00 in0.0 mm 0.00 in0.0 mm 0.00 in0.0 mm
05:45 AM 37.8°F3.2°C 36.3°F2.4°C 95% 8.0 mph NNW12.9 kmh NNW 11.0 mph17.7 kmh 29.94 in1013.9 mb 0.00 in0.0 mm 0.00 in0.0 mm 0.00 in0.0 mm
05:48 AM 37.8°F3.2°C 36.5°F2.5°C 95% 8.0 mph NNW12.9 kmh NNW 11.0 mph17.7 kmh 29.94 in1013.9 mb 0.00 in0.0 mm 0.00 in0.0 mm 0.00 in0.0 mm
05:51 AM 37.8°F3.2°C 36.5°F2.5°C 95% 8.0 mph NNW12.9 kmh NNW 11.0 mph17.7 kmh 29.94 in1013.9 mb 0.00 in0.0 mm 0.00 in0.0 mm 0.00 in0.0 mm
05:54 AM 37.8°F3.2°C 36.5°F2.5°C 95% 8.0 mph NNW12.9 kmh NNW 11.0 mph17.7 kmh 29.94 in1013.9 mb 0.00 in0.0 mm 0.00 in0.0 mm 0.00 in0.0 mm
05:57 AM 37.8°F3.2°C 36.5°F2.5°C 95% 7.0 mph NNW11.3 kmh NNW 10.0 mph16.1 kmh 29.94 in1013.9 mb 0.00 in0.0 mm 0.00 in0.0 mm 0.00 in0.0 mm
06:00 AM 37.9°F3.3°C 36.3°F2.4°C 94% 7.0 mph NNW11.3 kmh NNW 10.0 mph16.1 kmh 29.94 in1013.9 mb 0.00 in0.0 mm 0.00 in0.0 mm 0.00 in0.0 mm
06:03 AM 37.9°F3.3°C 36.7°F2.6°C 95% 6.0 mph NNW9.7 kmh NNW 10.0 mph16.1 kmh 29.94 in1013.9 mb 0.00 in0.0 mm 0.00 in0.0 mm 0.00 in0.0 mm
06:06 AM 37.9°F3.3°C 36.7°F2.6°C 95% 6.0 mph NNW9.7 kmh NNW 10.0 mph16.1 kmh 29.94 in1013.9 mb 0.00 in0.0 mm 0.00 in0.0 mm 0.00 in0.0 mm
06:09 AM 38.1°F3.4°C 36.9°F2.7°C 95% 6.0 mph NNW9.7 kmh NNW 10.0 mph16.1 kmh 29.94 in1013.9 mb 0.00 in0.0 mm 0.00 in0.0 mm 0.00 in0.0 mm
06:12 AM 38.3°F3.5°C 37.0°F2.8°C 95% 6.0 mph NNW9.7 kmh NNW 9.0 mph14.5 kmh 29.94 in1013.9 mb 0.00 in0.0 mm 0.00 in0.0 mm 0.00 in0.0 mm
06:15 AM 38.5°F3.6°C 37.2°F2.9°C 95% 6.0 mph NNW9.7 kmh NNW 8.0 mph12.9 kmh 29.95 in1014.2 mb 0.00 in0.0 mm 0.00 in0.0 mm 0.00 in0.0 mm
06:18 AM 38.7°F3.7°C 37.4°F3.0°C 95% 6.0 mph NNW9.7 kmh NNW 8.0 mph12.9 kmh 29.94 in1013.9 mb 0.00 in0.0 mm 0.00 in0.0 mm 0.00 in0.0 mm
06:21 AM 38.8°F3.8°C 37.6°F3.1°C 95% 6.0 mph NNW9.7 kmh NNW 8.0 mph12.9 kmh 29.94 in1013.9 mb 0.00 in0.0 mm 0.00 in0.0 mm 0.00 in0.0 mm
06:24 AM 39.0°F3.9°C 37.8°F3.2°C 95% 5.0 mph NNW8.0 kmh NNW 8.0 mph12.9 kmh 29.94 in1013.9 mb 0.00 in0.0 mm 0.00 in0.0 mm 0.00 in0.0 mm
06:27 AM 39.4°F4.1°C 38.1°F3.4°C 95% 5.0 mph N8.0 kmh N 8.0 mph12.9 kmh 29.95 in1014.2 mb 0.00 in0.0 mm 0.00 in0.0 mm 0.00 in0.0 mm
06:30 AM 39.6°F4.2°C 38.3°F3.5°C 95% 5.0 mph NNW8.0 kmh NNW 8.0 mph12.9 kmh 29.95 in1014.2 mb 0.00 in0.0 mm 0.00 in0.0 mm 0.00 in0.0 mm
06:33 AM 39.7°F4.3°C 38.3°F3.5°C 94% 5.0 mph N8.0 kmh N 8.0 mph12.9 kmh 29.95 in1014.2 mb 0.00 in0.0 mm 0.00 in0.0 mm 0.00 in0.0 mm
06:36 AM 40.1°F4.5°C 38.5°F3.6°C 94% 5.0 mph N8.0 kmh N 9.0 mph14.5 kmh 29.95 in1014.2 mb 0.00 in0.0 mm 0.00 in0.0 mm 0.00 in0.0 mm
06:39 AM 40.3°F4.6°C 38.7°F3.7°C 94% 6.0 mph NNW9.7 kmh NNW 9.0 mph14.5 kmh 29.95 in1014.2 mb 0.00 in0.0 mm 0.00 in0.0 mm 0.00 in0.0 mm
06:42 AM 40.5°F4.7°C 38.8°F3.8°C 94% 6.0 mph NNW9.7 kmh NNW 10.0 mph16.1 kmh 29.95 in1014.2 mb 0.00 in0.0 mm 0.00 in0.0 mm 0.00 in0.0 mm
06:45 AM 40.6°F4.8°C 39.0°F3.9°C 94% 6.0 mph NNW9.7 kmh NNW 10.0 mph16.1 kmh 29.95 in1014.2 mb 0.00 in0.0 mm 0.00 in0.0 mm 0.00 in0.0 mm
06:48 AM 40.8°F4.9°C 39.2°F4.0°C 94% 7.0 mph NNW11.3 kmh NNW 10.0 mph16.1 kmh 29.95 in1014.2 mb 0.00 in0.0 mm 0.00 in0.0 mm 0.00 in0.0 mm
06:51 AM 41.2°F5.1°C 39.6°F4.2°C 94% 7.0 mph NNW11.3 kmh NNW 10.0 mph16.1 kmh 29.95 in1014.2 mb 0.00 in0.0 mm 0.00 in0.0 mm 0.00 in0.0 mm
06:54 AM 41.4°F5.2°C 39.7°F4.3°C 94% 7.0 mph NNW11.3 kmh NNW 10.0 mph16.1 kmh 29.95 in1014.2 mb 0.00 in0.0 mm 0.00 in0.0 mm 0.00 in0.0 mm
06:57 AM 41.5°F5.3°C 39.7°F4.3°C 93% 7.0 mph NNW11.3 kmh NNW 10.0 mph16.1 kmh 29.95 in1014.2 mb 0.00 in0.0 mm 0.00 in0.0 mm 0.00 in0.0 mm
07:00 AM 41.7°F5.4°C 39.9°F4.4°C 93% 6.0 mph NNW9.7 kmh NNW 9.0 mph14.5 kmh 29.95 in1014.2 mb 0.00 in0.0 mm 0.00 in0.0 mm 0.00 in0.0 mm
07:03 AM 42.1°F5.6°C 40.1°F4.5°C 93% 6.0 mph NNW9.7 kmh NNW 9.0 mph14.5 kmh 29.95 in1014.2 mb 0.00 in0.0 mm 0.00 in0.0 mm 0.00 in0.0 mm
07:06 AM 42.1°F5.6°C 40.3°F4.6°C 93% 7.0 mph NNW11.3 kmh NNW 10.0 mph16.1 kmh 29.95 in1014.2 mb 0.00 in0.0 mm 0.00 in0.0 mm 0.00 in0.0 mm
07:09 AM 42.1°F5.6°C 39.9°F4.4°C 92% 7.0 mph NNW11.3 kmh NNW 10.0 mph16.1 kmh 29.95 in1014.2 mb 0.00 in0.0 mm 0.00 in0.0 mm 0.00 in0.0 mm
07:12 AM 42.1°F5.6°C 39.9°F4.4°C 92% 7.0 mph NNW11.3 kmh NNW 10.0 mph16.1 kmh 29.95 in1014.2 mb 0.00 in0.0 mm 0.00 in0.0 mm 0.00 in0.0 mm
07:15 AM 42.3°F5.7°C 40.1°F4.5°C 92% 7.0 mph NNW11.3 kmh NNW 9.0 mph14.5 kmh 29.95 in1014.2 mb 0.00 in0.0 mm 0.00 in0.0 mm 0.00 in0.0 mm
07:18 AM 42.4°F5.8°C 40.3°F4.6°C 92% 7.0 mph NNW11.3 kmh NNW 9.0 mph14.5 kmh 29.95 in1014.2 mb 0.00 in0.0 mm 0.00 in0.0 mm 0.00 in0.0 mm
07:21 AM 42.6°F5.9°C 40.5°F4.7°C 92% 6.0 mph NNW9.7 kmh NNW 9.0 mph14.5 kmh 29.95 in1014.2 mb 0.00 in0.0 mm 0.00 in0.0 mm 0.00 in0.0 mm
07:24 AM 42.6°F5.9°C 40.5°F4.7°C 92% 7.0 mph NNW11.3 kmh NNW 10.0 mph16.1 kmh 29.95 in1014.2 mb 0.00 in0.0 mm 0.00 in0.0 mm 0.00 in0.0 mm
07:27 AM 43.0°F6.1°C 40.5°F4.7°C 91% 7.0 mph NNW11.3 kmh NNW 10.0 mph16.1 kmh 29.95 in1014.2 mb 0.00 in0.0 mm 0.00 in0.0 mm 0.00 in0.0 mm
07:30 AM 43.2°F6.2°C 40.6°F4.8°C 91% 7.0 mph NNW11.3 kmh NNW 10.0 mph16.1 kmh 29.95 in1014.2 mb 0.00 in0.0 mm 0.00 in0.0 mm 0.00 in0.0 mm
07:33 AM 43.2°F6.2°C 40.8°F4.9°C 91% 7.0 mph NNW11.3 kmh NNW 10.0 mph16.1 kmh 29.95 in1014.2 mb 0.00 in0.0 mm 0.00 in0.0 mm 0.00 in0.0 mm
07:36 AM 43.5°F6.4°C 41.2°F5.1°C 91% 7.0 mph NNW11.3 kmh NNW 10.0 mph16.1 kmh 29.95 in1014.2 mb 0.00 in0.0 mm 0.00 in0.0 mm 0.00 in0.0 mm
07:39 AM 43.7°F6.5°C 41.0°F5.0°C 90% 7.0 mph NNW11.3 kmh NNW 10.0 mph16.1 kmh 29.95 in1014.2 mb 0.00 in0.0 mm 0.00 in0.0 mm 0.00 in0.0 mm
07:42 AM 43.9°F6.6°C 41.2°F5.1°C 90% 7.0 mph NNW11.3 kmh NNW 10.0 mph16.1 kmh 29.95 in1014.2 mb 0.00 in0.0 mm 0.00 in0.0 mm 0.00 in0.0 mm
07:45 AM 44.1°F6.7°C 41.4°F5.2°C 90% 7.0 mph NNW11.3 kmh NNW 10.0 mph16.1 kmh 29.95 in1014.2 mb 0.00 in0.0 mm 0.00 in0.0 mm 0.00 in0.0 mm
07:48 AM 44.2°F6.8°C 41.5°F5.3°C 90% 6.0 mph NNW9.7 kmh NNW 10.0 mph16.1 kmh 29.95 in1014.2 mb 0.00 in0.0 mm 0.00 in0.0 mm 0.00 in0.0 mm
07:51 AM 44.4°F6.9°C 41.7°F5.4°C 90% 6.0 mph NNW9.7 kmh NNW 10.0 mph16.1 kmh 29.95 in1014.2 mb 0.00 in0.0 mm 0.00 in0.0 mm 0.00 in0.0 mm
07:54 AM 44.6°F7.0°C 41.9°F5.5°C 90% 5.0 mph NNW8.0 kmh NNW 10.0 mph16.1 kmh 29.95 in1014.2 mb 0.00 in0.0 mm 0.00 in0.0 mm 0.00 in0.0 mm
07:57 AM 45.0°F7.2°C 42.1°F5.6°C 90% 4.0 mph NNW6.4 kmh NNW 9.0 mph14.5 kmh 29.95 in1014.2 mb 0.00 in0.0 mm 0.00 in0.0 mm 0.00 in0.0 mm
08:00 AM 45.0°F7.2°C 42.3°F5.7°C 90% 4.0 mph NW6.4 kmh NW 8.0 mph12.9 kmh 29.95 in1014.2 mb 0.00 in0.0 mm 0.00 in0.0 mm 0.00 in0.0 mm
08:03 AM 45.1°F7.3°C 42.4°F5.8°C 90% 3.0 mph NW4.8 kmh NW 6.0 mph9.7 kmh 29.95 in1014.2 mb 0.00 in0.0 mm 0.00 in0.0 mm 0.00 in0.0 mm
08:06 AM 45.5°F7.5°C 42.8°F6.0°C 90% 3.0 mph NNW4.8 kmh NNW 8.0 mph12.9 kmh 29.95 in1014.2 mb 0.00 in0.0 mm 0.00 in0.0 mm 0.00 in0.0 mm
08:09 AM 45.9°F7.7°C 43.2°F6.2°C 90% 4.0 mph NNW6.4 kmh NNW 10.0 mph16.1 kmh 29.95 in1014.2 mb 0.00 in0.0 mm 0.00 in0.0 mm 0.00 in0.0 mm
08:12 AM 46.2°F7.9°C 43.5°F6.4°C 90% 5.0 mph NNW8.0 kmh NNW 10.0 mph16.1 kmh 29.95 in1014.2 mb 0.00 in0.0 mm 0.00 in0.0 mm 0.00 in0.0 mm
08:15 AM 46.6°F8.1°C 43.2°F6.2°C 88% 6.0 mph NNW9.7 kmh NNW 10.0 mph16.1 kmh 29.95 in1014.2 mb 0.00 in0.0 mm 0.00 in0.0 mm 0.00 in0.0 mm
08:18 AM 46.4°F8.0°C 43.0°F6.1°C 88% 7.0 mph NNW11.3 kmh NNW 10.0 mph16.1 kmh 29.95 in1014.2 mb 0.00 in0.0 mm 0.00 in0.0 mm 0.00 in0.0 mm
08:21 AM 46.4°F8.0°C 42.8°F6.0°C 87% 7.0 mph N11.3 kmh N 10.0 mph16.1 kmh 29.95 in1014.2 mb 0.00 in0.0 mm 0.00 in0.0 mm 0.00 in0.0 mm
08:24 AM 46.6°F8.1°C 43.0°F6.1°C 87% 7.0 mph N11.3 kmh N 11.0 mph17.7 kmh 29.95 in1014.2 mb 0.00 in0.0 mm 0.00 in0.0 mm 0.00 in0.0 mm
08:27 AM 46.6°F8.1°C 42.6°F5.9°C 86% 7.0 mph N11.3 kmh N 11.0 mph17.7 kmh 29.95 in1014.2 mb 0.00 in0.0 mm 0.00 in0.0 mm 0.00 in0.0 mm
08:30 AM 46.8°F8.2°C 42.8°F6.0°C 86% 7.0 mph N11.3 kmh N 11.0 mph17.7 kmh 29.95 in1014.2 mb 0.00 in0.0 mm 0.00 in0.0 mm 0.00 in0.0 mm
08:33 AM 46.8°F8.2°C 42.8°F6.0°C 86% 6.0 mph N9.7 kmh N 10.0 mph16.1 kmh 29.95 in1014.2 mb 0.00 in0.0 mm 0.00 in0.0 mm 0.00 in0.0 mm
08:36 AM 46.9°F8.3°C 43.0°F6.1°C 86% 6.0 mph N9.7 kmh N 10.0 mph16.1 kmh 29.95 in1014.2 mb 0.00 in0.0 mm 0.00 in0.0 mm 0.00 in0.0 mm
08:39 AM 47.1°F8.4°C 43.2°F6.2°C 86% 5.0 mph N8.0 kmh N 9.0 mph14.5 kmh 29.95 in1014.2 mb 0.00 in0.0 mm 0.00 in0.0 mm 0.00 in0.0 mm
08:42 AM 47.7°F8.7°C 43.3°F6.3°C 85% 5.0 mph N8.0 kmh N 9.0 mph14.5 kmh 29.95 in1014.2 mb 0.00 in0.0 mm 0.00 in0.0 mm 0.00 in0.0 mm
08:45 AM 48.0°F8.9°C 43.3°F6.3°C 84% 4.0 mph N6.4 kmh N 9.0 mph14.5 kmh 29.95 in1014.2 mb 0.00 in0.0 mm 0.00 in0.0 mm 0.00 in0.0 mm
08:48 AM 48.2°F9.0°C 43.3°F6.3°C 83% 3.0 mph N4.8 kmh N 8.0 mph12.9 kmh 29.95 in1014.2 mb 0.00 in0.0 mm 0.00 in0.0 mm 0.00 in0.0 mm
08:51 AM 48.6°F9.2°C 43.0°F6.1°C 81% 3.0 mph NNE4.8 kmh NNE 8.0 mph12.9 kmh 29.95 in1014.2 mb 0.00 in0.0 mm 0.00 in0.0 mm 0.00 in0.0 mm
08:54 AM 48.7°F9.3°C 42.3°F5.7°C 78% 3.0 mph NNE4.8 kmh NNE 8.0 mph12.9 kmh 29.95 in1014.2 mb 0.00 in0.0 mm 0.00 in0.0 mm 0.00 in0.0 mm
08:57 AM 48.9°F9.4°C 42.3°F5.7°C 78% 4.0 mph N6.4 kmh N 9.0 mph14.5 kmh 29.95 in1014.2 mb 0.00 in0.0 mm 0.00 in0.0 mm 0.00 in0.0 mm
09:00 AM 49.3°F9.6°C 42.6°F5.9°C 78% 4.0 mph N6.4 kmh N 9.0 mph14.5 kmh 29.95 in1014.2 mb 0.00 in0.0 mm 0.00 in0.0 mm 0.00 in0.0 mm
09:03 AM 49.5°F9.7°C 43.0°F6.1°C 78% 5.0 mph N8.0 kmh N 9.0 mph14.5 kmh 29.95 in1014.2 mb 0.00 in0.0 mm 0.00 in0.0 mm 0.00 in0.0 mm
09:06 AM 49.6°F9.8°C 42.6°F5.9°C 77% 4.0 mph NNE6.4 kmh NNE 9.0 mph14.5 kmh 29.95 in1014.2 mb 0.00 in0.0 mm 0.00 in0.0 mm 0.00 in0.0 mm
09:09 AM 49.8°F9.9°C 43.0°F6.1°C 77% 3.0 mph NNE4.8 kmh NNE 8.0 mph12.9 kmh 29.95 in1014.2 mb 0.00 in0.0 mm 0.00 in0.0 mm 0.00 in0.0 mm
09:12 AM 50.2°F10.1°C 43.2°F6.2°C 77% 3.0 mph NNE4.8 kmh NNE 8.0 mph12.9 kmh 29.95 in1014.2 mb 0.00 in0.0 mm 0.00 in0.0 mm 0.00 in0.0 mm
09:15 AM 50.4°F10.2°C 43.0°F6.1°C 76% 3.0 mph N4.8 kmh N 8.0 mph12.9 kmh 29.95 in1014.2 mb 0.00 in0.0 mm 0.00 in0.0 mm 0.00 in0.0 mm
09:18 AM 50.5°F10.3°C 42.4°F5.8°C 74% 3.0 mph N4.8 kmh N 8.0 mph12.9 kmh 29.95 in1014.2 mb 0.00 in0.0 mm 0.00 in0.0 mm 0.00 in0.0 mm
09:21 AM 50.7°F10.4°C 42.4°F5.8°C 73% 3.0 mph N4.8 kmh N 10.0 mph16.1 kmh 29.95 in1014.2 mb 0.00 in0.0 mm 0.00 in0.0 mm 0.00 in0.0 mm
09:24 AM 51.1°F10.6°C 43.0°F6.1°C 74% 3.0 mph N4.8 kmh N 10.0 mph16.1 kmh 29.95 in1014.2 mb 0.00 in0.0 mm 0.00 in0.0 mm 0.00 in0.0 mm
09:27 AM 51.3°F10.7°C 42.4°F5.8°C 72% 3.0 mph N4.8 kmh N 10.0 mph16.1 kmh 29.95 in1014.2 mb 0.00 in0.0 mm 0.00 in0.0 mm 0.00 in0.0 mm
09:30 AM 51.3°F10.7°C 42.3°F5.7°C 71% 3.0 mph N4.8 kmh N 8.0 mph12.9 kmh 29.95 in1014.2 mb 0.00 in0.0 mm 0.00 in0.0 mm 0.00 in0.0 mm
09:33 AM 51.6°F10.9°C 43.0°F6.1°C 72% 3.0 mph N4.8 kmh N 7.0 mph11.3 kmh 29.95 in1014.2 mb 0.00 in0.0 mm 0.00 in0.0 mm 0.00 in0.0 mm
09:36 AM 52.0°F11.1°C 43.3°F6.3°C 72% 2.0 mph N3.2 kmh N 7.0 mph11.3 kmh 29.95 in1014.2 mb 0.00 in0.0 mm 0.00 in0.0 mm 0.00 in0.0 mm
09:39 AM 52.3°F11.3°C 43.5°F6.4°C 72% 3.0 mph NNE4.8 kmh NNE 6.0 mph9.7 kmh 29.95 in1014.2 mb 0.00 in0.0 mm 0.00 in0.0 mm 0.00 in0.0 mm
09:42 AM 52.7°F11.5°C 43.9°F6.6°C 72% 3.0 mph NNE4.8 kmh NNE 8.0 mph12.9 kmh 29.95 in1014.2 mb 0.00 in0.0 mm 0.00 in0.0 mm 0.00 in0.0 mm
09:45 AM 52.9°F11.6°C 44.1°F6.7°C 72% 3.0 mph NE4.8 kmh NE 8.0 mph12.9 kmh 29.95 in1014.2 mb 0.00 in0.0 mm 0.00 in0.0 mm 0.00 in0.0 mm
09:48 AM 52.9°F11.6°C 43.3°F6.3°C 70% 3.0 mph NNE4.8 kmh NNE 8.0 mph12.9 kmh 29.95 in1014.2 mb 0.00 in0.0 mm 0.00 in0.0 mm 0.00 in0.0 mm
09:51 AM 52.7°F11.5°C 43.2°F6.2°C 70% 4.0 mph N6.4 kmh N 8.0 mph12.9 kmh 29.95 in1014.2 mb 0.00 in0.0 mm 0.00 in0.0 mm 0.00 in0.0 mm
09:54 AM 52.7°F11.5°C 42.8°F6.0°C 69% 4.0 mph N6.4 kmh N 8.0 mph12.9 kmh 29.95 in1014.2 mb 0.00 in0.0 mm 0.00 in0.0 mm 0.00 in0.0 mm
09:57 AM 52.9°F11.6°C 43.0°F6.1°C 69% 4.0 mph N6.4 kmh N 9.0 mph14.5 kmh 29.95 in1014.2 mb 0.00 in0.0 mm 0.00 in0.0 mm 0.00 in0.0 mm
10:00 AM 53.1°F11.7°C 43.5°F6.4°C 70% 4.0 mph N6.4 kmh N 9.0 mph14.5 kmh 29.95 in1014.2 mb 0.00 in0.0 mm 0.00 in0.0 mm 0.00 in0.0 mm
10:03 AM 53.2°F11.8°C 43.0°F6.1°C 68% 4.0 mph N6.4 kmh N 9.0 mph14.5 kmh 29.95 in1014.2 mb 0.00 in0.0 mm 0.00 in0.0 mm 0.00 in0.0 mm
10:06 AM 53.2°F11.8°C 43.3°F6.3°C 69% 3.0 mph NNE4.8 kmh NNE 8.0 mph12.9 kmh 29.95 in1014.2 mb 0.00 in0.0 mm 0.00 in0.0 mm 0.00 in0.0 mm
10:09 AM 53.4°F11.9°C 43.2°F6.2°C 68% 4.0 mph NE6.4 kmh NE 8.0 mph12.9 kmh 29.95 in1014.2 mb 0.00 in0.0 mm 0.00 in0.0 mm 0.00 in0.0 mm
10:12 AM 53.8°F12.1°C 45.0°F7.2°C 72% 4.0 mph NE6.4 kmh NE 8.0 mph12.9 kmh 29.95 in1014.2 mb 0.00 in0.0 mm 0.00 in0.0 mm 0.00 in0.0 mm
10:15 AM 54.1°F12.3°C 44.6°F7.0°C 70% 4.0 mph NE6.4 kmh NE 11.0 mph17.7 kmh 29.95 in1014.2 mb 0.00 in0.0 mm 0.00 in0.0 mm 0.00 in0.0 mm
10:18 AM 54.1°F12.3°C 42.6°F5.9°C 65% 5.0 mph N8.0 kmh N 11.0 mph17.7 kmh 29.95 in1014.2 mb 0.00 in0.0 mm 0.00 in0.0 mm 0.00 in0.0 mm
10:21 AM 54.5°F12.5°C 43.3°F6.3°C 66% 4.0 mph N6.4 kmh N 11.0 mph17.7 kmh 29.95 in1014.2 mb 0.00 in0.0 mm 0.00 in0.0 mm 0.00 in0.0 mm
10:24 AM 54.7°F12.6°C 42.3°F5.7°C 63% 5.0 mph N8.0 kmh N 11.0 mph17.7 kmh 29.95 in1014.2 mb 0.00 in0.0 mm 0.00 in0.0 mm 0.00 in0.0 mm
10:27 AM 54.3°F12.4°C 42.1°F5.6°C 63% 4.0 mph N6.4 kmh N 8.0 mph12.9 kmh 29.95 in1014.2 mb 0.00 in0.0 mm 0.00 in0.0 mm 0.00 in0.0 mm
10:30 AM 54.1°F12.3°C 42.3°F5.7°C 64% 4.0 mph N6.4 kmh N 8.0 mph12.9 kmh 29.95 in1014.2 mb 0.00 in0.0 mm 0.00 in0.0 mm 0.00 in0.0 mm
10:33 AM 54.0°F12.2°C 42.1°F5.6°C 64% 3.0 mph N4.8 kmh N 8.0 mph12.9 kmh 29.95 in1014.2 mb 0.00 in0.0 mm 0.00 in0.0 mm 0.00 in0.0 mm
10:36 AM 53.4°F11.9°C 42.4°F5.8°C 66% 2.0 mph NW3.2 kmh NW 6.0 mph9.7 kmh 29.95 in1014.2 mb 0.00 in0.0 mm 0.00 in0.0 mm 0.00 in0.0 mm
10:39 AM 53.2°F11.8°C 42.3°F5.7°C 66% 2.0 mph WNW3.2 kmh WNW 6.0 mph9.7 kmh 29.95 in1014.2 mb 0.00 in0.0 mm 0.00 in0.0 mm 0.00 in0.0 mm
10:42 AM 53.4°F11.9°C 42.8°F6.0°C 67% 2.0 mph N3.2 kmh N 6.0 mph9.7 kmh 29.96 in1014.6 mb 0.00 in0.0 mm 0.00 in0.0 mm 0.00 in0.0 mm
10:45 AM 53.8°F12.1°C 43.3°F6.3°C 68% 3.0 mph ENE4.8 kmh ENE 6.0 mph9.7 kmh 29.96 in1014.6 mb 0.00 in0.0 mm 0.00 in0.0 mm 0.00 in0.0 mm
10:48 AM 54.0°F12.2°C 43.9°F6.6°C 69% 3.0 mph ENE4.8 kmh ENE 6.0 mph9.7 kmh 29.96 in1014.6 mb 0.00 in0.0 mm 0.00 in0.0 mm 0.00 in0.0 mm
10:51 AM 54.1°F12.3°C 44.6°F7.0°C 70% 3.0 mph E4.8 kmh E 7.0 mph11.3 kmh 29.95 in1014.2 mb 0.00 in0.0 mm 0.00 in0.0 mm 0.00 in0.0 mm
10:54 AM 54.5°F12.5°C 45.0°F7.2°C 70% 2.0 mph E3.2 kmh E 7.0 mph11.3 kmh 29.95 in1014.2 mb 0.00 in0.0 mm 0.00 in0.0 mm 0.00 in0.0 mm
10:57 AM 54.7°F12.6°C 43.5°F6.4°C 66% 2.0 mph E3.2 kmh E 7.0 mph11.3 kmh 29.95 in1014.2 mb 0.00 in0.0 mm 0.00 in0.0 mm 0.00 in0.0 mm
11:00 AM 55.0°F12.8°C 44.2°F6.8°C 67% 2.0 mph NE3.2 kmh NE 6.0 mph9.7 kmh 29.95 in1014.2 mb 0.00 in0.0 mm 0.00 in0.0 mm 0.00 in0.0 mm
11:03 AM 54.9°F12.7°C 42.4°F5.8°C 63% 2.0 mph NE3.2 kmh NE 6.0 mph9.7 kmh 29.95 in1014.2 mb 0.00 in0.0 mm 0.00 in0.0 mm 0.00 in0.0 mm
11:06 AM 54.7°F12.6°C 43.0°F6.1°C 65% 3.0 mph NNE4.8 kmh NNE 6.0 mph9.7 kmh 29.95 in1014.2 mb 0.00 in0.0 mm 0.00 in0.0 mm 0.00 in0.0 mm
11:09 AM 54.7°F12.6°C 43.5°F6.4°C 66% 3.0 mph NNE4.8 kmh NNE 6.0 mph9.7 kmh 29.95 in1014.2 mb 0.00 in0.0 mm 0.00 in0.0 mm 0.00 in0.0 mm
11:12 AM 54.5°F12.5°C 42.6°F5.9°C 64% 3.0 mph N4.8 kmh N 5.0 mph8.0 kmh 29.95 in1014.2 mb 0.00 in0.0 mm 0.00 in0.0 mm 0.00 in0.0 mm
11:15 AM 54.5°F12.5°C 43.3°F6.3°C 66% 2.0 mph N3.2 kmh N 5.0 mph8.0 kmh 29.95 in1014.2 mb 0.00 in0.0 mm 0.00 in0.0 mm 0.00 in0.0 mm
11:18 AM 54.9°F12.7°C 43.3°F6.3°C 65% 2.0 mph N3.2 kmh N 4.0 mph6.4 kmh 29.95 in1014.2 mb 0.00 in0.0 mm 0.00 in0.0 mm 0.00 in0.0 mm
11:21 AM 55.2°F12.9°C 44.1°F6.7°C 66% 3.0 mph NNE4.8 kmh NNE 9.0 mph14.5 kmh 29.95 in1014.2 mb 0.00 in0.0 mm 0.00 in0.0 mm 0.00 in0.0 mm
11:24 AM 55.6°F13.1°C 42.4°F5.8°C 61% 4.0 mph NE6.4 kmh NE 9.0 mph14.5 kmh 29.95 in1014.2 mb 0.00 in0.0 mm 0.00 in0.0 mm 0.00 in0.0 mm
11:27 AM 55.8°F13.2°C 43.3°F6.3°C 63% 4.0 mph NE6.4 kmh NE 9.0 mph14.5 kmh 29.95 in1014.2 mb 0.00 in0.0 mm 0.00 in0.0 mm 0.00 in0.0 mm
11:30 AM 55.9°F13.3°C 42.3°F5.7°C 60% 4.0 mph NE6.4 kmh NE 13.0 mph20.9 kmh 29.95 in1014.2 mb 0.00 in0.0 mm 0.00 in0.0 mm 0.00 in0.0 mm
11:33 AM 55.9°F13.3°C 42.3°F5.7°C 60% 4.0 mph NE6.4 kmh NE 13.0 mph20.9 kmh 29.95 in1014.2 mb 0.00 in0.0 mm 0.00 in0.0 mm 0.00 in0.0 mm
11:36 AM 56.1°F13.4°C 41.9°F5.5°C 59% 5.0 mph NNE8.0 kmh NNE 13.0 mph20.9 kmh 29.95 in1014.2 mb 0.00 in0.0 mm 0.00 in0.0 mm 0.00 in0.0 mm
11:39 AM 55.9°F13.3°C 41.4°F5.2°C 58% 5.0 mph NNE8.0 kmh NNE 10.0 mph16.1 kmh 29.96 in1014.6 mb 0.00 in0.0 mm 0.00 in0.0 mm 0.00 in0.0 mm
11:42 AM 55.8°F13.2°C 42.8°F6.0°C 62% 4.0 mph NE6.4 kmh NE 10.0 mph16.1 kmh 29.96 in1014.6 mb 0.00 in0.0 mm 0.00 in0.0 mm 0.00 in0.0 mm
11:45 AM 55.8°F13.2°C 45.0°F7.2°C 67% 4.0 mph E6.4 kmh E 11.0 mph17.7 kmh 29.95 in1014.2 mb 0.00 in0.0 mm 0.00 in0.0 mm 0.00 in0.0 mm
11:48 AM 55.9°F13.3°C 46.6°F8.1°C 71% 5.0 mph SSE8.0 kmh SSE 11.0 mph17.7 kmh 29.95 in1014.2 mb 0.00 in0.0 mm 0.00 in0.0 mm 0.00 in0.0 mm
11:51 AM 55.8°F13.2°C 45.3°F7.4°C 68% 7.0 mph SSE11.3 kmh SSE 14.0 mph22.5 kmh 29.95 in1014.2 mb 0.00 in0.0 mm 0.00 in0.0 mm 0.00 in0.0 mm
11:54 AM 55.2°F12.9°C 45.0°F7.2°C 68% 8.0 mph SSE12.9 kmh SSE 14.0 mph22.5 kmh 29.95 in1014.2 mb 0.00 in0.0 mm 0.00 in0.0 mm 0.00 in0.0 mm
11:57 AM 54.9°F12.7°C 44.6°F7.0°C 68% 9.0 mph SSE14.5 kmh SSE 14.0 mph22.5 kmh 29.95 in1014.2 mb 0.00 in0.0 mm 0.00 in0.0 mm 0.00 in0.0 mm
12:00 PM 54.3°F12.4°C 44.4°F6.9°C 69% 9.0 mph SSE14.5 kmh SSE 13.0 mph20.9 kmh 29.95 in1014.2 mb 0.00 in0.0 mm 0.00 in0.0 mm 0.00 in0.0 mm
12:03 PM 54.0°F12.2°C 44.4°F6.9°C 70% 8.0 mph SSE12.9 kmh SSE 12.0 mph19.3 kmh 29.95 in1014.2 mb 0.00 in0.0 mm 0.00 in0.0 mm 0.00 in0.0 mm
12:06 PM 53.6°F12.0°C 44.4°F6.9°C 71% 9.0 mph SSE14.5 kmh SSE 14.0 mph22.5 kmh 29.95 in1014.2 mb 0.00 in0.0 mm 0.00 in0.0 mm 0.00 in0.0 mm
12:09 PM 53.4°F11.9°C 45.0°F7.2°C 73% 9.0 mph SSE14.5 kmh SSE 14.0 mph22.5 kmh 29.96 in1014.6 mb 0.00 in0.0 mm 0.00 in0.0 mm 0.00 in0.0 mm
12:12 PM 54.0°F12.2°C 46.6°F8.1°C 76% 9.0 mph SSE14.5 kmh SSE 14.0 mph22.5 kmh 29.96 in1014.6 mb 0.00 in0.0 mm 0.00 in0.0 mm 0.00 in0.0 mm
12:15 PM 54.7°F12.6°C 47.5°F8.6°C 77% 9.0 mph SSE14.5 kmh SSE 14.0 mph22.5 kmh 29.96 in1014.6 mb 0.00 in0.0 mm 0.00 in0.0 mm 0.00 in0.0 mm
12:18 PM 54.9°F12.7°C 47.1°F8.4°C 75% 9.0 mph SSE14.5 kmh SSE 14.0 mph22.5 kmh 29.95 in1014.2 mb 0.00 in0.0 mm 0.00 in0.0 mm 0.00 in0.0 mm
12:21 PM 54.9°F12.7°C 46.8°F8.2°C 74% 10.0 mph SSE16.1 kmh SSE 14.0 mph22.5 kmh 29.96 in1014.6 mb 0.00 in0.0 mm 0.00 in0.0 mm 0.00 in0.0 mm
12:24 PM 54.3°F12.4°C 45.9°F7.7°C 73% 10.0 mph SSE16.1 kmh SSE 13.0 mph20.9 kmh 29.96 in1014.6 mb 0.00 in0.0 mm 0.00 in0.0 mm 0.00 in0.0 mm
12:27 PM 54.0°F12.2°C 45.5°F7.5°C 73% 9.0 mph SSE14.5 kmh SSE 13.0 mph20.9 kmh 29.96 in1014.6 mb 0.00 in0.0 mm 0.00 in0.0 mm 0.00 in0.0 mm
12:30 PM 53.8°F12.1°C 45.7°F7.6°C 74% 9.0 mph SSE14.5 kmh SSE 12.0 mph19.3 kmh 29.96 in1014.6 mb 0.00 in0.0 mm 0.00 in0.0 mm 0.00 in0.0 mm
12:33 PM 54.0°F12.2°C 46.6°F8.1°C 76% 8.0 mph SSE12.9 kmh SSE 12.0 mph19.3 kmh 29.96 in1014.6 mb 0.00 in0.0 mm 0.00 in0.0 mm 0.00 in0.0 mm
12:36 PM 54.7°F12.6°C 47.7°F8.7°C 77% 9.0 mph SE14.5 kmh SE 14.0 mph22.5 kmh 29.96 in1014.6 mb 0.00 in0.0 mm 0.00 in0.0 mm 0.00 in0.0 mm
12:39 PM 55.0°F12.8°C 47.3°F8.5°C 75% 10.0 mph SE16.1 kmh SE 15.0 mph24.1 kmh 29.96 in1014.6 mb 0.00 in0.0 mm 0.00 in0.0 mm 0.00 in0.0 mm
12:42 PM 55.4°F13.0°C 47.3°F8.5°C 74% 11.0 mph SE17.7 kmh SE 15.0 mph24.1 kmh 29.96 in1014.6 mb 0.00 in0.0 mm 0.00 in0.0 mm 0.00 in0.0 mm
12:45 PM 54.7°F12.6°C 45.5°F7.5°C 71% 11.0 mph SE17.7 kmh SE 16.0 mph25.7 kmh 29.96 in1014.6 mb 0.00 in0.0 mm 0.00 in0.0 mm 0.00 in0.0 mm
12:48 PM 54.0°F12.2°C 44.8°F7.1°C 71% 12.0 mph SE19.3 kmh SE 16.0 mph25.7 kmh 29.96 in1014.6 mb 0.00 in0.0 mm 0.00 in0.0 mm 0.00 in0.0 mm
12:51 PM 53.1°F11.7°C 44.2°F6.8°C 72% 11.0 mph SE17.7 kmh SE 16.0 mph25.7 kmh 29.96 in1014.6 mb 0.00 in0.0 mm 0.00 in0.0 mm 0.00 in0.0 mm
12:54 PM 52.3°F11.3°C 45.1°F7.3°C 76% 12.0 mph SE19.3 kmh SE 17.0 mph27.4 kmh 29.96 in1014.6 mb 0.00 in0.0 mm 0.00 in0.0 mm 0.00 in0.0 mm
12:57 PM 51.4°F10.8°C 43.5°F6.4°C 74% 11.0 mph SE17.7 kmh SE 17.0 mph27.4 kmh 29.96 in1014.6 mb 0.00 in0.0 mm 0.00 in0.0 mm 0.00 in0.0 mm
01:00 PM 50.5°F10.3°C 43.0°F6.1°C 75% 12.0 mph SE19.3 kmh SE 18.0 mph29.0 kmh 29.96 in1014.6 mb 0.00 in0.0 mm 0.00 in0.0 mm 0.00 in0.0 mm
01:03 PM 50.0°F10.0°C 42.8°F6.0°C 76% 11.0 mph SE17.7 kmh SE 18.0 mph29.0 kmh 29.96 in1014.6 mb 0.00 in0.0 mm 0.00 in0.0 mm 0.00 in0.0 mm
01:06 PM 49.5°F9.7°C 42.6°F5.9°C 77% 9.0 mph SE14.5 kmh SE 18.0 mph29.0 kmh 29.96 in1014.6 mb 0.00 in0.0 mm 0.00 in0.0 mm 0.00 in0.0 mm
01:09 PM 49.5°F9.7°C 43.0°F6.1°C 78% 8.0 mph SE12.9 kmh SE 16.0 mph25.7 kmh 29.96 in1014.6 mb 0.00 in0.0 mm 0.00 in0.0 mm 0.00 in0.0 mm
01:12 PM 49.5°F9.7°C 42.8°F6.0°C 78% 8.0 mph SE12.9 kmh SE 14.0 mph22.5 kmh 29.96 in1014.6 mb 0.00 in0.0 mm 0.00 in0.0 mm 0.00 in0.0 mm
01:15 PM 49.5°F9.7°C 42.4°F5.8°C 77% 9.0 mph SE14.5 kmh SE 14.0 mph22.5 kmh 29.96 in1014.6 mb 0.00 in0.0 mm 0.00 in0.0 mm 0.00 in0.0 mm
01:18 PM 49.5°F9.7°C 42.4°F5.8°C 77% 9.0 mph SE14.5 kmh SE 14.0 mph22.5 kmh 29.96 in1014.6 mb 0.00 in0.0 mm 0.00 in0.0 mm 0.00 in0.0 mm
01:21 PM 49.5°F9.7°C 43.0°F6.1°C 78% 9.0 mph SE14.5 kmh SE 14.0 mph22.5 kmh 29.96 in1014.6 mb 0.00 in0.0 mm 0.00 in0.0 mm 0.00 in0.0 mm
01:24 PM 49.5°F9.7°C 42.6°F5.9°C 77% 8.0 mph SE12.9 kmh SE 13.0 mph20.9 kmh 29.96 in1014.6 mb 0.00 in0.0 mm 0.00 in0.0 mm 0.00 in0.0 mm
01:27 PM 49.5°F9.7°C 43.0°F6.1°C 78% 7.0 mph SE11.3 kmh SE 13.0 mph20.9 kmh 29.97 in1014.9 mb 0.00 in0.0 mm 0.00 in0.0 mm 0.00 in0.0 mm
01:30 PM 49.5°F9.7°C 43.0°F6.1°C 78% 5.0 mph SE8.0 kmh SE 11.0 mph17.7 kmh 29.97 in1014.9 mb 0.00 in0.0 mm 0.00 in0.0 mm 0.00 in0.0 mm
01:33 PM 49.5°F9.7°C 42.4°F5.8°C 77% 5.0 mph SE8.0 kmh SE 11.0 mph17.7 kmh 29.97 in1014.9 mb 0.00 in0.0 mm 0.00 in0.0 mm 0.00 in0.0 mm
01:36 PM 49.3°F9.6°C 42.4°F5.8°C 77% 4.0 mph SE6.4 kmh SE 11.0 mph17.7 kmh 29.97 in1014.9 mb 0.00 in0.0 mm 0.00 in0.0 mm 0.00 in0.0 mm
01:39 PM 49.3°F9.6°C 42.4°F5.8°C 77% 4.0 mph SE6.4 kmh SE 8.0 mph12.9 kmh 29.97 in1014.9 mb 0.00 in0.0 mm 0.00 in0.0 mm 0.00 in0.0 mm
01:42 PM 49.5°F9.7°C 42.8°F6.0°C 78% 4.0 mph SE6.4 kmh SE 8.0 mph12.9 kmh 29.97 in1014.9 mb 0.00 in0.0 mm 0.00 in0.0 mm 0.00 in0.0 mm
01:45 PM 49.5°F9.7°C 42.8°F6.0°C 78% 4.0 mph SE6.4 kmh SE 7.0 mph11.3 kmh 29.97 in1014.9 mb 0.00 in0.0 mm 0.00 in0.0 mm 0.00 in0.0 mm
01:48 PM 49.5°F9.7°C 43.3°F6.3°C 79% 4.0 mph SE6.4 kmh SE 8.0 mph12.9 kmh 29.97 in1014.9 mb 0.00 in0.0 mm 0.00 in0.0 mm 0.00 in0.0 mm
01:51 PM 49.6°F9.8°C 43.5°F6.4°C 79% 5.0 mph SE8.0 kmh SE 11.0 mph17.7 kmh 29.97 in1014.9 mb 0.00 in0.0 mm 0.00 in0.0 mm 0.00 in0.0 mm
01:54 PM 49.8°F9.9°C 43.9°F6.6°C 80% 6.0 mph SE9.7 kmh SE 11.0 mph17.7 kmh 29.97 in1014.9 mb 0.00 in0.0 mm 0.00 in0.0 mm 0.00 in0.0 mm
01:57 PM 50.0°F10.0°C 44.1°F6.7°C 80% 7.0 mph SE11.3 kmh SE 11.0 mph17.7 kmh 29.97 in1014.9 mb 0.00 in0.0 mm 0.00 in0.0 mm 0.00 in0.0 mm
02:00 PM 50.2°F10.1°C 44.2°F6.8°C 80% 7.0 mph SE11.3 kmh SE 11.0 mph17.7 kmh 29.96 in1014.6 mb 0.00 in0.0 mm 0.00 in0.0 mm 0.00 in0.0 mm
02:03 PM 50.5°F10.3°C 45.0°F7.2°C 81% 6.0 mph SSE9.7 kmh SSE 10.0 mph16.1 kmh 29.97 in1014.9 mb 0.00 in0.0 mm 0.00 in0.0 mm 0.00 in0.0 mm
02:06 PM 51.1°F10.6°C 45.5°F7.5°C 81% 7.0 mph SSE11.3 kmh SSE 10.0 mph16.1 kmh 29.97 in1014.9 mb 0.00 in0.0 mm 0.00 in0.0 mm 0.00 in0.0 mm
02:09 PM 51.3°F10.7°C 45.0°F7.2°C 79% 7.0 mph SSE11.3 kmh SSE 10.0 mph16.1 kmh 29.97 in1014.9 mb 0.00 in0.0 mm 0.00 in0.0 mm 0.00 in0.0 mm
02:12 PM 51.3°F10.7°C 45.0°F7.2°C 79% 7.0 mph SSE11.3 kmh SSE 10.0 mph16.1 kmh 29.97 in1014.9 mb 0.00 in0.0 mm 0.00 in0.0 mm 0.00 in0.0 mm
02:15 PM 51.3°F10.7°C 45.0°F7.2°C 79% 7.0 mph SSE11.3 kmh SSE 10.0 mph16.1 kmh 29.96 in1014.6 mb 0.00 in0.0 mm 0.00 in0.0 mm 0.00 in0.0 mm
02:18 PM 51.1°F10.6°C 44.8°F7.1°C 79% 7.0 mph S11.3 kmh S 11.0 mph17.7 kmh 29.96 in1014.6 mb 0.00 in0.0 mm 0.00 in0.0 mm 0.00 in0.0 mm
02:21 PM 51.1°F10.6°C 44.8°F7.1°C 79% 7.0 mph S11.3 kmh S 11.0 mph17.7 kmh 29.96 in1014.6 mb 0.00 in0.0 mm 0.00 in0.0 mm 0.00 in0.0 mm
02:24 PM 50.9°F10.5°C 45.0°F7.2°C 80% 7.0 mph SSE11.3 kmh SSE 11.0 mph17.7 kmh 29.96 in1014.6 mb 0.00 in0.0 mm 0.00 in0.0 mm 0.00 in0.0 mm
02:27 PM 51.1°F10.6°C 45.3°F7.4°C 81% 8.0 mph SSE12.9 kmh SSE 11.0 mph17.7 kmh 29.97 in1014.9 mb 0.00 in0.0 mm 0.00 in0.0 mm 0.00 in0.0 mm
02:30 PM 51.1°F10.6°C 45.3°F7.4°C 81% 8.0 mph SSE12.9 kmh SSE 11.0 mph17.7 kmh 29.96 in1014.6 mb 0.00 in0.0 mm 0.00 in0.0 mm 0.00 in0.0 mm
02:33 PM 51.1°F10.6°C 45.3°F7.4°C 81% 7.0 mph SSE11.3 kmh SSE 11.0 mph17.7 kmh 29.96 in1014.6 mb 0.00 in0.0 mm 0.00 in0.0 mm 0.00 in0.0 mm
02:36 PM 50.9°F10.5°C 45.3°F7.4°C 81% 7.0 mph SSE11.3 kmh SSE 11.0 mph17.7 kmh 29.96 in1014.6 mb 0.00 in0.0 mm 0.00 in0.0 mm 0.00 in0.0 mm
02:39 PM 50.7°F10.4°C 45.1°F7.3°C 81% 6.0 mph SSE9.7 kmh SSE 11.0 mph17.7 kmh 29.97 in1014.9 mb 0.00 in0.0 mm 0.00 in0.0 mm 0.00 in0.0 mm
02:42 PM 50.5°F10.3°C 45.0°F7.2°C 81% 4.0 mph SSE6.4 kmh SSE 10.0 mph16.1 kmh 29.97 in1014.9 mb 0.00 in0.0 mm 0.00 in0.0 mm 0.00 in0.0 mm
02:45 PM 50.5°F10.3°C 44.6°F7.0°C 80% 3.0 mph SE4.8 kmh SE 9.0 mph14.5 kmh 29.97 in1014.9 mb 0.00 in0.0 mm 0.00 in0.0 mm 0.00 in0.0 mm
02:48 PM 50.2°F10.1°C 44.2°F6.8°C 80% 3.0 mph SE4.8 kmh SE 7.0 mph11.3 kmh 29.97 in1014.9 mb 0.01 in0.3 mm 0.20 in5.1 mm 0.01 in0.3 mm
02:51 PM 50.2°F10.1°C 44.2°F6.8°C 80% 2.0 mph SE3.2 kmh SE 6.0 mph9.7 kmh 29.97 in1014.9 mb 0.01 in0.3 mm 0.00 in0.0 mm 0.01 in0.3 mm
02:54 PM 50.0°F10.0°C 44.4°F6.9°C 81% 2.0 mph ESE3.2 kmh ESE 6.0 mph9.7 kmh 29.97 in1014.9 mb 0.02 in0.5 mm 0.20 in5.1 mm 0.02 in0.5 mm
02:57 PM 49.6°F9.8°C 44.1°F6.7°C 81% 2.0 mph SE3.2 kmh SE 6.0 mph9.7 kmh 29.96 in1014.6 mb 0.02 in0.5 mm 0.00 in0.0 mm 0.02 in0.5 mm
03:00 PM 49.5°F9.7°C 44.1°F6.7°C 82% 2.0 mph SSE3.2 kmh SSE 4.0 mph6.4 kmh 29.96 in1014.6 mb 0.02 in0.5 mm 0.00 in0.0 mm 0.02 in0.5 mm
03:03 PM 49.3°F9.6°C 44.2°F6.8°C 83% 2.0 mph SSW3.2 kmh SSW 4.0 mph6.4 kmh 29.96 in1014.6 mb 0.02 in0.5 mm 0.00 in0.0 mm 0.02 in0.5 mm
03:06 PM 49.1°F9.5°C 44.4°F6.9°C 84% 2.0 mph SW3.2 kmh SW 4.0 mph6.4 kmh 29.96 in1014.6 mb 0.02 in0.5 mm 0.00 in0.0 mm 0.02 in0.5 mm
03:09 PM 48.9°F9.4°C 44.2°F6.8°C 84% 2.0 mph SW3.2 kmh SW 4.0 mph6.4 kmh 29.96 in1014.6 mb 0.02 in0.5 mm 0.00 in0.0 mm 0.02 in0.5 mm
03:12 PM 48.7°F9.3°C 44.4°F6.9°C 85% 2.0 mph SW3.2 kmh SW 4.0 mph6.4 kmh 29.96 in1014.6 mb 0.02 in0.5 mm 0.00 in0.0 mm 0.02 in0.5 mm
03:15 PM 48.7°F9.3°C 44.4°F6.9°C 85% 2.0 mph SW3.2 kmh SW 4.0 mph6.4 kmh 29.95 in1014.2 mb 0.02 in0.5 mm 0.00 in0.0 mm 0.02 in0.5 mm
03:18 PM 48.6°F9.2°C 44.6°F7.0°C 86% 2.0 mph SW3.2 kmh SW 4.0 mph6.4 kmh 29.95 in1014.2 mb 0.02 in0.5 mm 0.00 in0.0 mm 0.02 in0.5 mm
03:21 PM 48.6°F9.2°C 44.6°F7.0°C 86% 2.0 mph SSW3.2 kmh SSW 4.0 mph6.4 kmh 29.96 in1014.6 mb 0.02 in0.5 mm 0.00 in0.0 mm 0.02 in0.5 mm
03:24 PM 48.6°F9.2°C 44.2°F6.8°C 85% 1.0 mph S1.6 kmh S 3.0 mph4.8 kmh 29.96 in1014.6 mb 0.02 in0.5 mm 0.00 in0.0 mm 0.02 in0.5 mm
03:27 PM 48.6°F9.2°C 44.2°F6.8°C 85% 1.0 mph S1.6 kmh S 3.0 mph4.8 kmh 29.96 in1014.6 mb 0.02 in0.5 mm 0.00 in0.0 mm 0.02 in0.5 mm
03:30 PM 48.7°F9.3°C 44.4°F6.9°C 85% 1.0 mph NW1.6 kmh NW 3.0 mph4.8 kmh 29.96 in1014.6 mb 0.02 in0.5 mm 0.00 in0.0 mm 0.02 in0.5 mm
03:33 PM 48.9°F9.4°C 44.6°F7.0°C 85% 1.0 mph NW1.6 kmh NW 3.0 mph4.8 kmh 29.96 in1014.6 mb 0.02 in0.5 mm 0.00 in0.0 mm 0.02 in0.5 mm
03:36 PM 49.3°F9.6°C 45.1°F7.3°C 86% 2.0 mph NW3.2 kmh NW 3.0 mph4.8 kmh 29.96 in1014.6 mb 0.02 in0.5 mm 0.00 in0.0 mm 0.02 in0.5 mm
03:39 PM 49.5°F9.7°C 45.1°F7.3°C 85% 1.0 mph NW1.6 kmh NW 3.0 mph4.8 kmh 29.96 in1014.6 mb 0.02 in0.5 mm 0.00 in0.0 mm 0.02 in0.5 mm
03:42 PM 49.5°F9.7°C 44.8°F7.1°C 84% 2.0 mph NNW3.2 kmh NNW 6.0 mph9.7 kmh 29.96 in1014.6 mb 0.02 in0.5 mm 0.00 in0.0 mm 0.02 in0.5 mm
03:45 PM 49.5°F9.7°C 45.1°F7.3°C 85% 3.0 mph NNW4.8 kmh NNW 6.0 mph9.7 kmh 29.96 in1014.6 mb 0.02 in0.5 mm 0.00 in0.0 mm 0.02 in0.5 mm
03:48 PM 49.6°F9.8°C 45.0°F7.2°C 84% 3.0 mph NNW4.8 kmh NNW 6.0 mph9.7 kmh 29.96 in1014.6 mb 0.02 in0.5 mm 0.00 in0.0 mm 0.02 in0.5 mm
03:51 PM 49.5°F9.7°C 44.8°F7.1°C 84% 3.0 mph NW4.8 kmh NW 6.0 mph9.7 kmh 29.96 in1014.6 mb 0.02 in0.5 mm 0.00 in0.0 mm 0.02 in0.5 mm
03:54 PM 49.5°F9.7°C 44.4°F6.9°C 83% 2.0 mph NW3.2 kmh NW 6.0 mph9.7 kmh 29.96 in1014.6 mb 0.01 in0.3 mm 0.00 in0.0 mm 0.02 in0.5 mm
03:57 PM 49.3°F9.6°C 44.2°F6.8°C 83% 2.0 mph WNW3.2 kmh WNW 7.0 mph11.3 kmh 29.96 in1014.6 mb 0.01 in0.3 mm 0.00 in0.0 mm 0.02 in0.5 mm
04:00 PM 49.1°F9.5°C 44.2°F6.8°C 83% 2.0 mph WNW3.2 kmh WNW 7.0 mph11.3 kmh 29.95 in1014.2 mb 0.01 in0.3 mm 0.00 in0.0 mm 0.02 in0.5 mm
04:03 PM 48.9°F9.4°C 44.1°F6.7°C 83% 2.0 mph WNW3.2 kmh WNW 7.0 mph11.3 kmh 29.95 in1014.2 mb 0.01 in0.3 mm 0.00 in0.0 mm 0.02 in0.5 mm
04:06 PM 48.9°F9.4°C 43.9°F6.6°C 83% 1.0 mph NW1.6 kmh NW 4.0 mph6.4 kmh 29.95 in1014.2 mb 0.01 in0.3 mm 0.00 in0.0 mm 0.02 in0.5 mm
04:09 PM 48.7°F9.3°C 43.7°F6.5°C 83% 2.0 mph N3.2 kmh N 4.0 mph6.4 kmh 29.95 in1014.2 mb 0.01 in0.3 mm 0.00 in0.0 mm 0.02 in0.5 mm
04:12 PM 48.7°F9.3°C 43.7°F6.5°C 83% 2.0 mph NNE3.2 kmh NNE 5.0 mph8.0 kmh 29.95 in1014.2 mb 0.01 in0.3 mm 0.00 in0.0 mm 0.02 in0.5 mm
04:15 PM 48.6°F9.2°C 43.3°F6.3°C 82% 3.0 mph NE4.8 kmh NE 6.0 mph9.7 kmh 29.95 in1014.2 mb 0.01 in0.3 mm 0.00 in0.0 mm 0.02 in0.5 mm
04:18 PM 48.7°F9.3°C 43.7°F6.5°C 83% 3.0 mph NE4.8 kmh NE 8.0 mph12.9 kmh 29.95 in1014.2 mb 0.01 in0.3 mm 0.00 in0.0 mm 0.02 in0.5 mm
04:21 PM 48.6°F9.2°C 43.7°F6.5°C 83% 4.0 mph NNE6.4 kmh NNE 8.0 mph12.9 kmh 29.95 in1014.2 mb 0.01 in0.3 mm 0.00 in0.0 mm 0.02 in0.5 mm
04:24 PM 48.6°F9.2°C 43.5°F6.4°C 83% 5.0 mph N8.0 kmh N 10.0 mph16.1 kmh 29.95 in1014.2 mb 0.01 in0.3 mm 0.00 in0.0 mm 0.02 in0.5 mm
04:27 PM 48.4°F9.1°C 43.0°F6.1°C 82% 6.0 mph N9.7 kmh N 11.0 mph17.7 kmh 29.95 in1014.2 mb 0.00 in0.0 mm 0.00 in0.0 mm 0.02 in0.5 mm
04:30 PM 48.4°F9.1°C 42.8°F6.0°C 81% 6.0 mph N9.7 kmh N 11.0 mph17.7 kmh 29.95 in1014.2 mb 0.00 in0.0 mm 0.00 in0.0 mm 0.02 in0.5 mm
04:33 PM 48.4°F9.1°C 42.8°F6.0°C 81% 4.0 mph N6.4 kmh N 11.0 mph17.7 kmh 29.95 in1014.2 mb 0.00 in0.0 mm 0.00 in0.0 mm 0.02 in0.5 mm
04:36 PM 48.7°F9.3°C 43.5°F6.4°C 82% 3.0 mph NNE4.8 kmh NNE 6.0 mph9.7 kmh 29.95 in1014.2 mb 0.00 in0.0 mm 0.00 in0.0 mm 0.02 in0.5 mm
04:39 PM 49.1°F9.5°C 43.5°F6.4°C 81% 2.0 mph NE3.2 kmh NE 5.0 mph8.0 kmh 29.95 in1014.2 mb 0.00 in0.0 mm 0.00 in0.0 mm 0.02 in0.5 mm
04:42 PM 49.6°F9.8°C 44.1°F6.7°C 81% 3.0 mph ENE4.8 kmh ENE 5.0 mph8.0 kmh 29.95 in1014.2 mb 0.00 in0.0 mm 0.00 in0.0 mm 0.02 in0.5 mm
04:45 PM 50.4°F10.2°C 44.4°F6.9°C 80% 3.0 mph E4.8 kmh E 7.0 mph11.3 kmh 29.95 in1014.2 mb 0.00 in0.0 mm 0.00 in0.0 mm 0.02 in0.5 mm
04:48 PM 51.1°F10.6°C 45.3°F7.4°C 81% 3.0 mph E4.8 kmh E 7.0 mph11.3 kmh 29.95 in1014.2 mb 0.00 in0.0 mm 0.00 in0.0 mm 0.02 in0.5 mm
04:51 PM 51.6°F10.9°C 45.7°F7.6°C 80% 3.0 mph SE4.8 kmh SE 7.0 mph11.3 kmh 29.95 in1014.2 mb 0.00 in0.0 mm 0.00 in0.0 mm 0.02 in0.5 mm
04:54 PM 52.2°F11.2°C 45.9°F7.7°C 79% 3.0 mph SE4.8 kmh SE 7.0 mph11.3 kmh 29.95 in1014.2 mb 0.00 in0.0 mm 0.00 in0.0 mm 0.02 in0.5 mm
04:57 PM 52.7°F11.5°C 46.4°F8.0°C 79% 3.0 mph SE4.8 kmh SE 7.0 mph11.3 kmh 29.95 in1014.2 mb 0.00 in0.0 mm 0.00 in0.0 mm 0.02 in0.5 mm
05:00 PM 53.2°F11.8°C 45.9°F7.7°C 76% 3.0 mph SE4.8 kmh SE 7.0 mph11.3 kmh 29.95 in1014.2 mb 0.00 in0.0 mm 0.00 in0.0 mm 0.02 in0.5 mm
05:03 PM 53.4°F11.9°C 46.4°F8.0°C 77% 3.0 mph SE4.8 kmh SE 7.0 mph11.3 kmh 29.95 in1014.2 mb 0.00 in0.0 mm 0.00 in0.0 mm 0.02 in0.5 mm
05:06 PM 53.6°F12.0°C 46.2°F7.9°C 76% 4.0 mph SE6.4 kmh SE 7.0 mph11.3 kmh 29.95 in1014.2 mb 0.00 in0.0 mm 0.00 in0.0 mm 0.02 in0.5 mm
05:09 PM 53.6°F12.0°C 46.2°F7.9°C 76% 4.0 mph SE6.4 kmh SE 7.0 mph11.3 kmh 29.95 in1014.2 mb 0.00 in0.0 mm 0.00 in0.0 mm 0.02 in0.5 mm
05:12 PM 53.4°F11.9°C 46.0°F7.8°C 76% 4.0 mph SE6.4 kmh SE 8.0 mph12.9 kmh 29.95 in1014.2 mb 0.00 in0.0 mm 0.00 in0.0 mm 0.02 in0.5 mm
05:15 PM 53.2°F11.8°C 45.9°F7.7°C 76% 5.0 mph ESE8.0 kmh ESE 10.0 mph16.1 kmh 29.95 in1014.2 mb 0.00 in0.0 mm 0.00 in0.0 mm 0.02 in0.5 mm
05:18 PM 52.7°F11.5°C 45.3°F7.4°C 76% 5.0 mph ESE8.0 kmh ESE 10.0 mph16.1 kmh 29.95 in1014.2 mb 0.00 in0.0 mm 0.00 in0.0 mm 0.02 in0.5 mm
05:21 PM 52.3°F11.3°C 45.1°F7.3°C 76% 5.0 mph ESE8.0 kmh ESE 10.0 mph16.1 kmh 29.95 in1014.2 mb 0.00 in0.0 mm 0.00 in0.0 mm 0.02 in0.5 mm
05:24 PM 52.3°F11.3°C 45.3°F7.4°C 77% 5.0 mph ESE8.0 kmh ESE 10.0 mph16.1 kmh 29.95 in1014.2 mb 0.00 in0.0 mm 0.00 in0.0 mm 0.02 in0.5 mm
05:27 PM 52.2°F11.2°C 45.1°F7.3°C 77% 5.0 mph ESE8.0 kmh ESE 10.0 mph16.1 kmh 29.95 in1014.2 mb 0.00 in0.0 mm 0.00 in0.0 mm 0.02 in0.5 mm
05:30 PM 51.8°F11.0°C 44.4°F6.9°C 76% 5.0 mph E8.0 kmh E 10.0 mph16.1 kmh 29.95 in1014.2 mb 0.00 in0.0 mm 0.00 in0.0 mm 0.02 in0.5 mm
05:33 PM 51.4°F10.8°C 43.7°F6.5°C 75% 5.0 mph E8.0 kmh E 10.0 mph16.1 kmh 29.96 in1014.6 mb 0.00 in0.0 mm 0.00 in0.0 mm 0.02 in0.5 mm
05:36 PM 51.1°F10.6°C 43.9°F6.6°C 76% 4.0 mph E6.4 kmh E 9.0 mph14.5 kmh 29.96 in1014.6 mb 0.00 in0.0 mm 0.00 in0.0 mm 0.02 in0.5 mm
05:39 PM 50.9°F10.5°C 43.9°F6.6°C 77% 4.0 mph E6.4 kmh E 8.0 mph12.9 kmh 29.96 in1014.6 mb 0.00 in0.0 mm 0.00 in0.0 mm 0.02 in0.5 mm
05:42 PM 50.5°F10.3°C 44.1°F6.7°C 78% 3.0 mph ESE4.8 kmh ESE 7.0 mph11.3 kmh 29.96 in1014.6 mb 0.00 in0.0 mm 0.00 in0.0 mm 0.02 in0.5 mm
05:45 PM 50.4°F10.2°C 43.7°F6.5°C 78% 3.0 mph ESE4.8 kmh ESE 7.0 mph11.3 kmh 29.96 in1014.6 mb 0.00 in0.0 mm 0.00 in0.0 mm 0.02 in0.5 mm
05:48 PM 50.2°F10.1°C 43.5°F6.4°C 78% 4.0 mph ESE6.4 kmh ESE 7.0 mph11.3 kmh 29.96 in1014.6 mb 0.00 in0.0 mm 0.00 in0.0 mm 0.02 in0.5 mm
05:51 PM 49.8°F9.9°C 43.7°F6.5°C 79% 3.0 mph E4.8 kmh E 7.0 mph11.3 kmh 29.96 in1014.6 mb 0.00 in0.0 mm 0.00 in0.0 mm 0.02 in0.5 mm
05:54 PM 49.6°F9.8°C 43.5°F6.4°C 79% 3.0 mph E4.8 kmh E 6.0 mph9.7 kmh 29.96 in1014.6 mb 0.00 in0.0 mm 0.00 in0.0 mm 0.02 in0.5 mm
05:57 PM 49.5°F9.7°C 43.5°F6.4°C 80% 2.0 mph E3.2 kmh E 7.0 mph11.3 kmh 29.97 in1014.9 mb 0.00 in0.0 mm 0.00 in0.0 mm 0.02 in0.5 mm
06:00 PM 49.3°F9.6°C 43.3°F6.3°C 80% 3.0 mph E4.8 kmh E 8.0 mph12.9 kmh 29.97 in1014.9 mb 0.00 in0.0 mm 0.00 in0.0 mm 0.02 in0.5 mm
06:03 PM 49.3°F9.6°C 43.7°F6.5°C 81% 4.0 mph E6.4 kmh E 9.0 mph14.5 kmh 29.97 in1014.9 mb 0.00 in0.0 mm 0.00 in0.0 mm 0.02 in0.5 mm
06:06 PM 48.9°F9.4°C 43.3°F6.3°C 81% 4.0 mph E6.4 kmh E 9.0 mph14.5 kmh 29.97 in1014.9 mb 0.00 in0.0 mm 0.00 in0.0 mm 0.02 in0.5 mm
06:09 PM 48.6°F9.2°C 43.0°F6.1°C 81% 4.0 mph E6.4 kmh E 12.0 mph19.3 kmh 29.97 in1014.9 mb 0.01 in0.3 mm 0.20 in5.1 mm 0.03 in0.8 mm
06:12 PM 48.4°F9.1°C 43.0°F6.1°C 82% 6.0 mph ENE9.7 kmh ENE 14.0 mph22.5 kmh 29.97 in1014.9 mb 0.02 in0.5 mm 0.20 in5.1 mm 0.04 in1.0 mm
06:15 PM 47.8°F8.8°C 42.8°F6.0°C 83% 7.0 mph ENE11.3 kmh ENE 14.0 mph22.5 kmh 29.97 in1014.9 mb 0.02 in0.5 mm 0.00 in0.0 mm 0.05 in1.3 mm
06:18 PM 47.3°F8.5°C 42.6°F5.9°C 84% 7.0 mph ENE11.3 kmh ENE 14.0 mph22.5 kmh 29.97 in1014.9 mb 0.02 in0.5 mm 0.00 in0.0 mm 0.05 in1.3 mm
06:21 PM 46.9°F8.3°C 42.3°F5.7°C 84% 6.0 mph ENE9.7 kmh ENE 14.0 mph22.5 kmh 29.97 in1014.9 mb 0.03 in0.8 mm 0.20 in5.1 mm 0.06 in1.5 mm
06:24 PM 46.8°F8.2°C 42.4°F5.8°C 85% 4.0 mph ENE6.4 kmh ENE 11.0 mph17.7 kmh 29.97 in1014.9 mb 0.03 in0.8 mm 0.00 in0.0 mm 0.06 in1.5 mm
06:27 PM 46.6°F8.1°C 42.3°F5.7°C 85% 3.0 mph ENE4.8 kmh ENE 9.0 mph14.5 kmh 29.97 in1014.9 mb 0.03 in0.8 mm 0.00 in0.0 mm 0.06 in1.5 mm
06:30 PM 46.2°F7.9°C 42.1°F5.6°C 85% 2.0 mph ENE3.2 kmh ENE 7.0 mph11.3 kmh 29.97 in1014.9 mb 0.03 in0.8 mm 0.00 in0.0 mm 0.06 in1.5 mm
06:33 PM 46.2°F7.9°C 41.9°F5.5°C 85% 2.0 mph E3.2 kmh E 4.0 mph6.4 kmh 29.97 in1014.9 mb 0.03 in0.8 mm 0.00 in0.0 mm 0.06 in1.5 mm
06:36 PM 46.0°F7.8°C 42.1°F5.6°C 86% 2.0 mph E3.2 kmh E 4.0 mph6.4 kmh 29.97 in1014.9 mb 0.03 in0.8 mm 0.00 in0.0 mm 0.06 in1.5 mm
06:39 PM 45.9°F7.7°C 41.9°F5.5°C 86% 1.0 mph ESE1.6 kmh ESE 4.0 mph6.4 kmh 29.97 in1014.9 mb 0.03 in0.8 mm 0.00 in0.0 mm 0.06 in1.5 mm
06:42 PM 45.9°F7.7°C 41.9°F5.5°C 86% 1.0 mph ESE1.6 kmh ESE 4.0 mph6.4 kmh 29.97 in1014.9 mb 0.03 in0.8 mm 0.00 in0.0 mm 0.06 in1.5 mm
06:45 PM 45.7°F7.6°C 41.7°F5.4°C 86% 1.0 mph ESE1.6 kmh ESE 3.0 mph4.8 kmh 29.97 in1014.9 mb 0.03 in0.8 mm 0.00 in0.0 mm 0.06 in1.5 mm
06:48 PM 45.5°F7.5°C 41.9°F5.5°C 87% 2.0 mph SSE3.2 kmh SSE 3.0 mph4.8 kmh 29.97 in1014.9 mb 0.03 in0.8 mm 0.00 in0.0 mm 0.06 in1.5 mm
06:51 PM 45.3°F7.4°C 41.7°F5.4°C 87% 2.0 mph S3.2 kmh S 4.0 mph6.4 kmh 29.97 in1014.9 mb 0.03 in0.8 mm 0.00 in0.0 mm 0.06 in1.5 mm
06:54 PM 45.3°F7.4°C 41.7°F5.4°C 87% 2.0 mph SW3.2 kmh SW 4.0 mph6.4 kmh 29.97 in1014.9 mb 0.03 in0.8 mm 0.00 in0.0 mm 0.06 in1.5 mm
06:57 PM 45.1°F7.3°C 41.5°F5.3°C 87% 2.0 mph SSW3.2 kmh SSW 4.0 mph6.4 kmh 29.97 in1014.9 mb 0.03 in0.8 mm 0.00 in0.0 mm 0.06 in1.5 mm
07:00 PM 45.0°F7.2°C 41.4°F5.2°C 87% 2.0 mph SW3.2 kmh SW 4.0 mph6.4 kmh 29.97 in1014.9 mb 0.03 in0.8 mm 0.00 in0.0 mm 0.06 in1.5 mm
07:03 PM 45.0°F7.2°C 41.2°F5.1°C 87% 2.0 mph SW3.2 kmh SW 4.0 mph6.4 kmh 29.97 in1014.9 mb 0.03 in0.8 mm 0.00 in0.0 mm 0.06 in1.5 mm
07:06 PM 44.8°F7.1°C 41.5°F5.3°C 88% 2.0 mph SW3.2 kmh SW 5.0 mph8.0 kmh 29.97 in1014.9 mb 0.03 in0.8 mm 0.00 in0.0 mm 0.06 in1.5 mm
07:09 PM 44.8°F7.1°C 41.4°F5.2°C 88% 3.0 mph SW4.8 kmh SW 5.0 mph8.0 kmh 29.97 in1014.9 mb 0.02 in0.5 mm 0.00 in0.0 mm 0.06 in1.5 mm
07:12 PM 44.6°F7.0°C 41.2°F5.1°C 88% 3.0 mph SW4.8 kmh SW 5.0 mph8.0 kmh 29.97 in1014.9 mb 0.02 in0.5 mm 0.00 in0.0 mm 0.06 in1.5 mm
07:15 PM 44.4°F6.9°C 41.2°F5.1°C 88% 2.0 mph SW3.2 kmh SW 4.0 mph6.4 kmh 29.97 in1014.9 mb 0.01 in0.3 mm 0.00 in0.0 mm 0.06 in1.5 mm
07:18 PM 44.2°F6.8°C 41.0°F5.0°C 88% 2.0 mph SW3.2 kmh SW 4.0 mph6.4 kmh 29.97 in1014.9 mb 0.01 in0.3 mm 0.00 in0.0 mm 0.06 in1.5 mm
07:21 PM 44.2°F6.8°C 40.8°F4.9°C 88% 2.0 mph SW3.2 kmh SW 4.0 mph6.4 kmh 29.97 in1014.9 mb 0.00 in0.0 mm 0.00 in0.0 mm 0.06 in1.5 mm
07:24 PM 44.1°F6.7°C 40.6°F4.8°C 88% 2.0 mph SW3.2 kmh SW 4.0 mph6.4 kmh 29.98 in1015.2 mb 0.00 in0.0 mm 0.00 in0.0 mm 0.06 in1.5 mm
07:27 PM 43.9°F6.6°C 40.6°F4.8°C 88% 2.0 mph SW3.2 kmh SW 4.0 mph6.4 kmh 29.98 in1015.2 mb 0.00 in0.0 mm 0.00 in0.0 mm 0.06 in1.5 mm
07:30 PM 43.7°F6.5°C 40.6°F4.8°C 89% 2.0 mph WSW3.2 kmh WSW 4.0 mph6.4 kmh 29.98 in1015.2 mb 0.00 in0.0 mm 0.00 in0.0 mm 0.06 in1.5 mm
07:33 PM 43.5°F6.4°C 40.6°F4.8°C 89% 2.0 mph WSW3.2 kmh WSW 4.0 mph6.4 kmh 29.98 in1015.2 mb 0.00 in0.0 mm 0.00 in0.0 mm 0.06 in1.5 mm
07:36 PM 43.5°F6.4°C 40.6°F4.8°C 89% 2.0 mph W3.2 kmh W 4.0 mph6.4 kmh 29.98 in1015.2 mb 0.00 in0.0 mm 0.00 in0.0 mm 0.06 in1.5 mm
07:39 PM 43.7°F6.5°C 41.0°F5.0°C 90% 2.0 mph W3.2 kmh W 4.0 mph6.4 kmh 29.98 in1015.2 mb 0.00 in0.0 mm 0.00 in0.0 mm 0.06 in1.5 mm
07:42 PM 43.7°F6.5°C 41.0°F5.0°C 90% 2.0 mph W3.2 kmh W 4.0 mph6.4 kmh 29.98 in1015.2 mb 0.00 in0.0 mm 0.00 in0.0 mm 0.06 in1.5 mm
07:45 PM 43.5°F6.4°C 40.8°F4.9°C 90% 2.0 mph W3.2 kmh W 4.0 mph6.4 kmh 29.98 in1015.2 mb 0.00 in0.0 mm 0.00 in0.0 mm 0.06 in1.5 mm
07:48 PM 43.5°F6.4°C 40.8°F4.9°C 90% 2.0 mph W3.2 kmh W 4.0 mph6.4 kmh 29.98 in1015.2 mb 0.00 in0.0 mm 0.00 in0.0 mm 0.06 in1.5 mm
07:51 PM 43.5°F6.4°C 40.8°F4.9°C 90% 2.0 mph W3.2 kmh W 4.0 mph6.4 kmh 29.98 in1015.2 mb 0.00 in0.0 mm 0.00 in0.0 mm 0.06 in1.5 mm
07:54 PM 43.5°F6.4°C 41.2°F5.1°C 91% 2.0 mph W3.2 kmh W 4.0 mph6.4 kmh 29.98 in1015.2 mb 0.00 in0.0 mm 0.00 in0.0 mm 0.06 in1.5 mm
07:57 PM 43.5°F6.4°C 41.2°F5.1°C 91% 2.0 mph W3.2 kmh W 4.0 mph6.4 kmh 29.98 in1015.2 mb 0.00 in0.0 mm 0.00 in0.0 mm 0.06 in1.5 mm
08:00 PM 43.5°F6.4°C 41.2°F5.1°C 91% 2.0 mph W3.2 kmh W 3.0 mph4.8 kmh 29.98 in1015.2 mb 0.00 in0.0 mm 0.00 in0.0 mm 0.06 in1.5 mm
08:03 PM 43.5°F6.4°C 41.2°F5.1°C 91% 2.0 mph W3.2 kmh W 4.0 mph6.4 kmh 29.99 in1015.6 mb 0.00 in0.0 mm 0.00 in0.0 mm 0.06 in1.5 mm
08:06 PM 43.5°F6.4°C 41.2°F5.1°C 91% 1.0 mph W1.6 kmh W 4.0 mph6.4 kmh 29.99 in1015.6 mb 0.00 in0.0 mm 0.00 in0.0 mm 0.06 in1.5 mm
08:09 PM 43.5°F6.4°C 41.2°F5.1°C 91% 1.0 mph WNW1.6 kmh WNW 4.0 mph6.4 kmh 29.99 in1015.6 mb 0.00 in0.0 mm 0.00 in0.0 mm 0.06 in1.5 mm
08:12 PM 43.5°F6.4°C 41.2°F5.1°C 91% 1.0 mph WNW1.6 kmh WNW 4.0 mph6.4 kmh 29.99 in1015.6 mb 0.00 in0.0 mm 0.00 in0.0 mm 0.06 in1.5 mm
08:15 PM 43.5°F6.4°C 41.2°F5.1°C 91% 1.0 mph W1.6 kmh W 3.0 mph4.8 kmh 29.99 in1015.6 mb 0.00 in0.0 mm 0.00 in0.0 mm 0.06 in1.5 mm
08:18 PM 43.5°F6.4°C 41.0°F5.0°C 91% 1.0 mph W1.6 kmh W 3.0 mph4.8 kmh 29.99 in1015.6 mb 0.00 in0.0 mm 0.00 in0.0 mm 0.06 in1.5 mm
08:21 PM 43.3°F6.3°C 41.0°F5.0°C 91% 1.0 mph W1.6 kmh W 3.0 mph4.8 kmh 29.99 in1015.6 mb 0.00 in0.0 mm 0.00 in0.0 mm 0.06 in1.5 mm
08:24 PM 43.3°F6.3°C 41.0°F5.0°C 91% 1.0 mph W1.6 kmh W 3.0 mph4.8 kmh 29.99 in1015.6 mb 0.00 in0.0 mm 0.00 in0.0 mm 0.06 in1.5 mm
08:27 PM 43.3°F6.3°C 40.8°F4.9°C 91% 2.0 mph WNW3.2 kmh WNW 3.0 mph4.8 kmh 30.00 in1015.9 mb 0.00 in0.0 mm 0.00 in0.0 mm 0.06 in1.5 mm
08:30 PM 43.2°F6.2°C 40.6°F4.8°C 91% 2.0 mph NW3.2 kmh NW 4.0 mph6.4 kmh 29.99 in1015.6 mb 0.00 in0.0 mm 0.00 in0.0 mm 0.06 in1.5 mm
08:33 PM 43.2°F6.2°C 40.6°F4.8°C 91% 3.0 mph NW4.8 kmh NW 5.0 mph8.0 kmh 29.99 in1015.6 mb 0.00 in0.0 mm 0.00 in0.0 mm 0.06 in1.5 mm
08:36 PM 43.0°F6.1°C 40.6°F4.8°C 91% 3.0 mph NNW4.8 kmh NNW 5.0 mph8.0 kmh 29.99 in1015.6 mb 0.00 in0.0 mm 0.00 in0.0 mm 0.06 in1.5 mm
08:39 PM 43.0°F6.1°C 40.5°F4.7°C 91% 3.0 mph NNW4.8 kmh NNW 5.0 mph8.0 kmh 30.00 in1015.9 mb 0.00 in0.0 mm 0.00 in0.0 mm 0.06 in1.5 mm
08:42 PM 42.8°F6.0°C 40.6°F4.8°C 92% 3.0 mph NNW4.8 kmh NNW 6.0 mph9.7 kmh 30.00 in1015.9 mb 0.00 in0.0 mm 0.00 in0.0 mm 0.06 in1.5 mm
08:45 PM 43.0°F6.1°C 40.8°F4.9°C 92% 4.0 mph NNW6.4 kmh NNW 6.0 mph9.7 kmh 30.00 in1015.9 mb 0.00 in0.0 mm 0.00 in0.0 mm 0.06 in1.5 mm
08:48 PM 43.0°F6.1°C 40.8°F4.9°C 92% 4.0 mph NNW6.4 kmh NNW 6.0 mph9.7 kmh 30.00 in1015.9 mb 0.00 in0.0 mm 0.00 in0.0 mm 0.06 in1.5 mm
08:51 PM 43.0°F6.1°C 40.8°F4.9°C 92% 5.0 mph NNW8.0 kmh NNW 6.0 mph9.7 kmh 30.00 in1015.9 mb 0.00 in0.0 mm 0.00 in0.0 mm 0.06 in1.5 mm
08:54 PM 43.0°F6.1°C 40.8°F4.9°C 92% 4.0 mph NNW6.4 kmh NNW 6.0 mph9.7 kmh 30.00 in1015.9 mb 0.00 in0.0 mm 0.00 in0.0 mm 0.06 in1.5 mm
08:57 PM 43.2°F6.2°C 41.0°F5.0°C 92% 4.0 mph NNW6.4 kmh NNW 6.0 mph9.7 kmh 29.99 in1015.6 mb 0.00 in0.0 mm 0.00 in0.0 mm 0.06 in1.5 mm
09:00 PM 43.2°F6.2°C 41.0°F5.0°C 92% 4.0 mph N6.4 kmh N 5.0 mph8.0 kmh 29.99 in1015.6 mb 0.00 in0.0 mm 0.00 in0.0 mm 0.06 in1.5 mm
09:03 PM 43.3°F6.3°C 41.4°F5.2°C 93% 3.0 mph N4.8 kmh N 5.0 mph8.0 kmh 30.00 in1015.9 mb 0.00 in0.0 mm 0.00 in0.0 mm 0.06 in1.5 mm
09:06 PM 43.5°F6.4°C 41.5°F5.3°C 93% 3.0 mph N4.8 kmh N 5.0 mph8.0 kmh 30.00 in1015.9 mb 0.00 in0.0 mm 0.00 in0.0 mm 0.06 in1.5 mm
09:09 PM 43.7°F6.5°C 41.7°F5.4°C 93% 2.0 mph N3.2 kmh N 5.0 mph8.0 kmh 30.00 in1015.9 mb 0.00 in0.0 mm 0.00 in0.0 mm 0.06 in1.5 mm
09:12 PM 43.7°F6.5°C 41.5°F5.3°C 92% 2.0 mph N3.2 kmh N 4.0 mph6.4 kmh 30.00 in1015.9 mb 0.00 in0.0 mm 0.00 in0.0 mm 0.06 in1.5 mm
09:15 PM 43.7°F6.5°C 41.5°F5.3°C 92% 2.0 mph N3.2 kmh N 4.0 mph6.4 kmh 30.00 in1015.9 mb 0.00 in0.0 mm 0.00 in0.0 mm 0.06 in1.5 mm
09:18 PM 43.7°F6.5°C 41.5°F5.3°C 92% 3.0 mph N4.8 kmh N 4.0 mph6.4 kmh 30.00 in1015.9 mb 0.00 in0.0 mm 0.00 in0.0 mm 0.06 in1.5 mm
09:21 PM 43.9°F6.6°C 41.5°F5.3°C 92% 3.0 mph N4.8 kmh N 4.0 mph6.4 kmh 30.00 in1015.9 mb 0.00 in0.0 mm 0.00 in0.0 mm 0.06 in1.5 mm
09:24 PM 43.9°F6.6°C 41.7°F5.4°C 92% 3.0 mph N4.8 kmh N 4.0 mph6.4 kmh 30.00 in1015.9 mb 0.00 in0.0 mm 0.00 in0.0 mm 0.06 in1.5 mm
09:27 PM 44.1°F6.7°C 42.1°F5.6°C 93% 3.0 mph NNE4.8 kmh NNE 5.0 mph8.0 kmh 30.00 in1015.9 mb 0.00 in0.0 mm 0.00 in0.0 mm 0.06 in1.5 mm
09:30 PM 44.1°F6.7°C 42.3°F5.7°C 93% 3.0 mph NE4.8 kmh NE 5.0 mph8.0 kmh 30.00 in1015.9 mb 0.00 in0.0 mm 0.00 in0.0 mm 0.06 in1.5 mm
09:33 PM 44.1°F6.7°C 42.3°F5.7°C 93% 3.0 mph NE4.8 kmh NE 5.0 mph8.0 kmh 30.00 in1015.9 mb 0.00 in0.0 mm 0.00 in0.0 mm 0.06 in1.5 mm
09:36 PM 44.1°F6.7°C 41.9°F5.5°C 92% 3.0 mph NE4.8 kmh NE 5.0 mph8.0 kmh 30.00 in1015.9 mb 0.00 in0.0 mm 0.00 in0.0 mm 0.06 in1.5 mm
09:39 PM 44.1°F6.7°C 41.9°F5.5°C 92% 3.0 mph NE4.8 kmh NE 4.0 mph6.4 kmh 30.00 in1015.9 mb 0.00 in0.0 mm 0.00 in0.0 mm 0.06 in1.5 mm
09:42 PM 44.1°F6.7°C 41.9°F5.5°C 92% 2.0 mph NE3.2 kmh NE 4.0 mph6.4 kmh 30.00 in1015.9 mb 0.00 in0.0 mm 0.00 in0.0 mm 0.06 in1.5 mm
09:45 PM 43.9°F6.6°C 41.7°F5.4°C 92% 2.0 mph NE3.2 kmh NE 4.0 mph6.4 kmh 30.00 in1015.9 mb 0.00 in0.0 mm 0.00 in0.0 mm 0.06 in1.5 mm
09:48 PM 43.5°F6.4°C 41.4°F5.2°C 92% 3.0 mph NNE4.8 kmh NNE 4.0 mph6.4 kmh 30.00 in1015.9 mb 0.00 in0.0 mm 0.00 in0.0 mm 0.06 in1.5 mm
09:51 PM 43.3°F6.3°C 41.0°F5.0°C 91% 3.0 mph N4.8 kmh N 5.0 mph8.0 kmh 30.00 in1015.9 mb 0.00 in0.0 mm 0.00 in0.0 mm 0.06 in1.5 mm
09:54 PM 43.2°F6.2°C 40.8°F4.9°C 91% 4.0 mph N6.4 kmh N 6.0 mph9.7 kmh 30.00 in1015.9 mb 0.00 in0.0 mm 0.00 in0.0 mm 0.06 in1.5 mm
09:57 PM 43.0°F6.1°C 40.5°F4.7°C 91% 5.0 mph NNW8.0 kmh NNW 8.0 mph12.9 kmh 30.00 in1015.9 mb 0.00 in0.0 mm 0.00 in0.0 mm 0.06 in1.5 mm
10:00 PM 42.8°F6.0°C 40.6°F4.8°C 92% 5.0 mph NNW8.0 kmh NNW 8.0 mph12.9 kmh 30.00 in1015.9 mb 0.00 in0.0 mm 0.00 in0.0 mm 0.06 in1.5 mm
10:03 PM 42.6°F5.9°C 40.5°F4.7°C 92% 5.0 mph NNW8.0 kmh NNW 8.0 mph12.9 kmh 30.00 in1015.9 mb 0.00 in0.0 mm 0.00 in0.0 mm 0.06 in1.5 mm
10:06 PM 42.8°F6.0°C 40.6°F4.8°C 92% 5.0 mph NNW8.0 kmh NNW 8.0 mph12.9 kmh 30.00 in1015.9 mb 0.00 in0.0 mm 0.00 in0.0 mm 0.06 in1.5 mm
10:09 PM 43.0°F6.1°C 41.0°F5.0°C 93% 5.0 mph NNW8.0 kmh NNW 6.0 mph9.7 kmh 30.00 in1015.9 mb 0.00 in0.0 mm 0.00 in0.0 mm 0.06 in1.5 mm
10:12 PM 43.2°F6.2°C 41.2°F5.1°C 93% 5.0 mph NNW8.0 kmh NNW 6.0 mph9.7 kmh 30.00 in1015.9 mb 0.00 in0.0 mm 0.00 in0.0 mm 0.06 in1.5 mm
10:15 PM 43.2°F6.2°C 41.2°F5.1°C 93% 4.0 mph NNW6.4 kmh NNW 6.0 mph9.7 kmh 30.00 in1015.9 mb 0.00 in0.0 mm 0.00 in0.0 mm 0.06 in1.5 mm
10:18 PM 43.2°F6.2°C 41.4°F5.2°C 93% 4.0 mph NNW6.4 kmh NNW 6.0 mph9.7 kmh 30.00 in1015.9 mb 0.00 in0.0 mm 0.00 in0.0 mm 0.06 in1.5 mm
10:21 PM 43.3°F6.3°C 41.4°F5.2°C 93% 3.0 mph NNW4.8 kmh NNW 6.0 mph9.7 kmh 30.00 in1015.9 mb 0.00 in0.0 mm 0.00 in0.0 mm 0.06 in1.5 mm
10:24 PM 43.3°F6.3°C 41.4°F5.2°C 93% 2.0 mph NNW3.2 kmh NNW 5.0 mph8.0 kmh 30.00 in1015.9 mb 0.00 in0.0 mm 0.00 in0.0 mm 0.06 in1.5 mm
10:27 PM 43.3°F6.3°C 41.4°F5.2°C 93% 2.0 mph N3.2 kmh N 4.0 mph6.4 kmh 30.00 in1015.9 mb 0.00 in0.0 mm 0.00 in0.0 mm 0.06 in1.5 mm
10:30 PM 43.3°F6.3°C 41.4°F5.2°C 93% 1.0 mph N1.6 kmh N 3.0 mph4.8 kmh 30.00 in1015.9 mb 0.00 in0.0 mm 0.00 in0.0 mm 0.06 in1.5 mm
10:33 PM 43.3°F6.3°C 41.4°F5.2°C 93% Calm Calm 2.0 mph3.2 kmh 30.00 in1015.9 mb 0.00 in0.0 mm 0.00 in0.0 mm 0.06 in1.5 mm
10:36 PM 43.3°F6.3°C 41.5°F5.3°C 93% Calm Calm 2.0 mph3.2 kmh 30.00 in1015.9 mb 0.00 in0.0 mm 0.00 in0.0 mm 0.06 in1.5 mm
10:39 PM 43.5°F6.4°C 41.5°F5.3°C 93% Calm Calm -- 30.00 in1015.9 mb 0.00 in0.0 mm 0.00 in0.0 mm 0.06 in1.5 mm
10:42 PM 43.5°F6.4°C 41.5°F5.3°C 93% Calm Calm 2.0 mph3.2 kmh 30.00 in1015.9 mb 0.00 in0.0 mm 0.00 in0.0 mm 0.06 in1.5 mm
10:45 PM 43.5°F6.4°C 41.5°F5.3°C 93% 1.0 mph N1.6 kmh N 2.0 mph3.2 kmh 30.00 in1015.9 mb 0.00 in0.0 mm 0.00 in0.0 mm 0.06 in1.5 mm
10:48 PM 43.5°F6.4°C 41.5°F5.3°C 93% 1.0 mph N1.6 kmh N 2.0 mph3.2 kmh 30.00 in1015.9 mb 0.00 in0.0 mm 0.00 in0.0 mm 0.06 in1.5 mm
10:51 PM 43.5°F6.4°C 41.9°F5.5°C 94% 1.0 mph N1.6 kmh N 2.0 mph3.2 kmh 30.00 in1015.9 mb 0.00 in0.0 mm 0.00 in0.0 mm 0.06 in1.5 mm
10:54 PM 43.5°F6.4°C 41.7°F5.4°C 93% 1.0 mph N1.6 kmh N 2.0 mph3.2 kmh 30.00 in1015.9 mb 0.00 in0.0 mm 0.00 in0.0 mm 0.06 in1.5 mm
10:57 PM 43.5°F6.4°C 41.5°F5.3°C 93% 1.0 mph N1.6 kmh N 2.0 mph3.2 kmh 30.00 in1015.9 mb 0.00 in0.0 mm 0.00 in0.0 mm 0.06 in1.5 mm
11:00 PM 43.3°F6.3°C 41.5°F5.3°C 93% Calm Calm 2.0 mph3.2 kmh 30.00 in1015.9 mb 0.00 in0.0 mm 0.00 in0.0 mm 0.05 in1.3 mm
11:03 PM 43.2°F6.2°C 41.2°F5.1°C 93% Calm Calm 2.0 mph3.2 kmh 30.00 in1015.9 mb 0.00 in0.0 mm 0.00 in0.0 mm 0.05 in1.3 mm
11:06 PM 43.0°F6.1°C 41.0°F5.0°C 93% Calm Calm -- 30.01 in1016.3 mb 0.00 in0.0 mm 0.00 in0.0 mm 0.05 in1.3 mm
11:09 PM 43.0°F6.1°C 41.0°F5.0°C 93% Calm Calm -- 30.00 in1015.9 mb 0.00 in0.0 mm 0.00 in0.0 mm 0.05 in1.3 mm
11:12 PM 42.8°F6.0°C 41.0°F5.0°C 93% Calm Calm -- 30.00 in1015.9 mb 0.00 in0.0 mm 0.00 in0.0 mm 0.05 in1.3 mm
11:15 PM 42.6°F5.9°C 40.8°F4.9°C 93% Calm Calm -- 30.00 in1015.9 mb 0.00 in0.0 mm 0.00 in0.0 mm 0.05 in1.3 mm
11:18 PM 42.4°F5.8°C 40.6°F4.8°C 93% Calm Calm -- 30.00 in1015.9 mb 0.00 in0.0 mm 0.00 in0.0 mm 0.05 in1.3 mm
11:21 PM 42.4°F5.8°C 40.5°F4.7°C 93% Calm Calm -- 30.00 in1015.9 mb 0.00 in0.0 mm 0.00 in0.0 mm 0.05 in1.3 mm
11:24 PM 42.1°F5.6°C 40.3°F4.6°C 93% Calm Calm 2.0 mph3.2 kmh 30.00 in1015.9 mb 0.00 in0.0 mm 0.00 in0.0 mm 0.05 in1.3 mm
11:27 PM 42.1°F5.6°C 40.1°F4.5°C 93% Calm Calm 2.0 mph3.2 kmh 30.00 in1015.9 mb 0.00 in0.0 mm 0.00 in0.0 mm 0.05 in1.3 mm
11:30 PM 42.1°F5.6°C 40.5°F4.7°C 94% Calm Calm 2.0 mph3.2 kmh 30.00 in1015.9 mb 0.00 in0.0 mm 0.00 in0.0 mm 0.05 in1.3 mm
11:33 PM 42.3°F5.7°C 40.6°F4.8°C 94% Calm Calm 2.0 mph3.2 kmh 30.00 in1015.9 mb 0.00 in0.0 mm 0.00 in0.0 mm 0.05 in1.3 mm
11:36 PM 42.3°F5.7°C 40.6°F4.8°C 94% Calm Calm 2.0 mph3.2 kmh 30.00 in1015.9 mb 0.00 in0.0 mm 0.00 in0.0 mm 0.05 in1.3 mm
11:39 PM 42.3°F5.7°C 40.6°F4.8°C 94% Calm Calm 2.0 mph3.2 kmh 30.00 in1015.9 mb 0.00 in0.0 mm 0.00 in0.0 mm 0.05 in1.3 mm
11:42 PM 42.4°F5.8°C 40.8°F4.9°C 94% Calm Calm 2.0 mph3.2 kmh 30.00 in1015.9 mb 0.00 in0.0 mm 0.00 in0.0 mm 0.05 in1.3 mm
11:45 PM 42.4°F5.8°C 40.8°F4.9°C 94% Calm Calm 1.0 mph1.6 kmh 30.00 in1015.9 mb 0.00 in0.0 mm 0.00 in0.0 mm 0.05 in1.3 mm
11:48 PM 42.4°F5.8°C 40.8°F4.9°C 94% Calm Calm -- 30.00 in1015.9 mb 0.00 in0.0 mm 0.00 in0.0 mm 0.05 in1.3 mm
11:51 PM 42.4°F5.8°C 40.8°F4.9°C 94% Calm Calm -- 30.00 in1015.9 mb 0.00 in0.0 mm 0.00 in0.0 mm 0.05 in1.3 mm
11:54 PM 42.3°F5.7°C 40.6°F4.8°C 94% Calm Calm -- 30.00 in1015.9 mb 0.00 in0.0 mm 0.00 in0.0 mm 0.05 in1.3 mm
11:57 PM 42.1°F5.6°C 40.5°F4.7°C 94% Calm Calm -- 30.00 in1015.9 mb 0.00 in0.0 mm 0.00 in0.0 mm 0.05 in1.3 mm